<?xml version='1.0' encoding='UTF-8'?><gpx version="1.1" creator="JPX - https://github.com/jenetics/jpx" xmlns="http://www.topografix.com/GPX/1/1"><trk><trkseg><trkpt lat="43.0881916" lon="12.4852261"><ele>203.0</ele><time>2026-04-07T17:14:08.873Z</time></trkpt><trkpt lat="43.0882664" lon="12.4852444"><ele>203.0</ele><time>2026-04-07T17:14:10.872Z</time></trkpt><trkpt lat="43.08834" lon="12.4852262"><ele>203.0</ele><time>2026-04-07T17:14:12.871Z</time></trkpt><trkpt lat="43.0883644" lon="12.4851395"><ele>203.0</ele><time>2026-04-07T17:14:14.872Z</time></trkpt><trkpt lat="43.0883489" lon="12.4850506"><ele>203.0</ele><time>2026-04-07T17:14:16.871Z</time></trkpt><trkpt lat="43.0883088" lon="12.4849721"><ele>203.0</ele><time>2026-04-07T17:14:18.872Z</time></trkpt><trkpt lat="43.0882615" lon="12.4848935"><ele>203.0</ele><time>2026-04-07T17:14:20.872Z</time></trkpt><trkpt lat="43.0882215" lon="12.484814"><ele>203.0</ele><time>2026-04-07T17:14:22.872Z</time></trkpt><trkpt lat="43.088209" lon="12.4847242"><ele>203.0</ele><time>2026-04-07T17:14:24.872Z</time></trkpt><trkpt lat="43.0882156" lon="12.4846358"><ele>203.0</ele><time>2026-04-07T17:14:26.871Z</time></trkpt><trkpt lat="43.0882237" lon="12.4845446"><ele>203.0</ele><time>2026-04-07T17:14:28.873Z</time></trkpt><trkpt lat="43.0882286" lon="12.4844506"><ele>203.0</ele><time>2026-04-07T17:14:30.872Z</time></trkpt><trkpt lat="43.0882341" lon="12.4843575"><ele>203.0</ele><time>2026-04-07T17:14:32.871Z</time></trkpt><trkpt lat="43.0882409" lon="12.4842663"><ele>203.0</ele><time>2026-04-07T17:14:34.873Z</time></trkpt><trkpt lat="43.0882495" lon="12.4841804"><ele>203.57142857142858</ele><time>2026-04-07T17:14:36.873Z</time></trkpt><trkpt lat="43.0882567" lon="12.4840904"><ele>204.14285714285714</ele><time>2026-04-07T17:14:38.871Z</time></trkpt><trkpt lat="43.0882634" lon="12.4840038"><ele>204.71428571428572</ele><time>2026-04-07T17:14:40.872Z</time></trkpt><trkpt lat="43.0882675" lon="12.4839135"><ele>205.28571428571428</ele><time>2026-04-07T17:14:42.872Z</time></trkpt><trkpt lat="43.0882762" lon="12.4838202"><ele>205.85714285714286</ele><time>2026-04-07T17:14:44.872Z</time></trkpt><trkpt lat="43.0882816" lon="12.4837239"><ele>206.42857142857144</ele><time>2026-04-07T17:14:46.871Z</time></trkpt><trkpt lat="43.088288" lon="12.4836291"><ele>207.0</ele><time>2026-04-07T17:14:48.873Z</time></trkpt><trkpt lat="43.0882877" lon="12.4835317"><ele>207.00000000000003</ele><time>2026-04-07T17:14:50.873Z</time></trkpt><trkpt lat="43.0882848" lon="12.483433"><ele>207.0</ele><time>2026-04-07T17:14:52.873Z</time></trkpt><trkpt lat="43.0882857" lon="12.4833363"><ele>207.0</ele><time>2026-04-07T17:14:54.871Z</time></trkpt><trkpt lat="43.0882853" lon="12.4832362"><ele>207.0</ele><time>2026-04-07T17:14:56.873Z</time></trkpt><trkpt lat="43.0882877" lon="12.4831399"><ele>207.0</ele><time>2026-04-07T17:14:58.872Z</time></trkpt><trkpt lat="43.0882831" lon="12.4830403"><ele>207.00000000000003</ele><time>2026-04-07T17:15:00.872Z</time></trkpt><trkpt lat="43.0882766" lon="12.4829395"><ele>207.0</ele><time>2026-04-07T17:15:02.872Z</time></trkpt><trkpt lat="43.0882701" lon="12.4828322"><ele>207.16666666666666</ele><time>2026-04-07T17:15:04.873Z</time></trkpt><trkpt lat="43.0882651" lon="12.4827233"><ele>207.33333333333331</ele><time>2026-04-07T17:15:06.872Z</time></trkpt><trkpt lat="43.0882599" lon="12.4826174"><ele>207.5</ele><time>2026-04-07T17:15:08.872Z</time></trkpt><trkpt lat="43.088254" lon="12.482508"><ele>207.66666666666666</ele><time>2026-04-07T17:15:10.872Z</time></trkpt><trkpt lat="43.0882452" lon="12.4823868"><ele>207.83333333333331</ele><time>2026-04-07T17:15:12.872Z</time></trkpt><trkpt lat="43.0882378" lon="12.4822652"><ele>208.0</ele><time>2026-04-07T17:15:14.872Z</time></trkpt><trkpt lat="43.0882309" lon="12.482147"><ele>208.2</ele><time>2026-04-07T17:15:16.872Z</time></trkpt><trkpt lat="43.0882248" lon="12.482028"><ele>208.4</ele><time>2026-04-07T17:15:18.871Z</time></trkpt><trkpt lat="43.0882156" lon="12.4819044"><ele>208.6</ele><time>2026-04-07T17:15:20.871Z</time></trkpt><trkpt lat="43.0882084" lon="12.4817817"><ele>208.79999999999998</ele><time>2026-04-07T17:15:22.872Z</time></trkpt><trkpt lat="43.0882017" lon="12.4816588"><ele>209.0</ele><time>2026-04-07T17:15:24.872Z</time></trkpt><trkpt lat="43.0881944" lon="12.4815326"><ele>209.00000000000003</ele><time>2026-04-07T17:15:26.871Z</time></trkpt><trkpt lat="43.0881875" lon="12.4814045"><ele>209.0</ele><time>2026-04-07T17:15:28.872Z</time></trkpt><trkpt lat="43.0881807" lon="12.4812897"><ele>209.0</ele><time>2026-04-07T17:15:30.873Z</time></trkpt><trkpt lat="43.0881743" lon="12.4811674"><ele>209.0</ele><time>2026-04-07T17:15:32.872Z</time></trkpt><trkpt lat="43.088169" lon="12.481053"><ele>209.00000000000003</ele><time>2026-04-07T17:15:34.873Z</time></trkpt><trkpt lat="43.0881656" lon="12.4809413"><ele>209.0</ele><time>2026-04-07T17:15:36.871Z</time></trkpt><trkpt lat="43.0881611" lon="12.4808306"><ele>209.16666666666669</ele><time>2026-04-07T17:15:38.872Z</time></trkpt><trkpt lat="43.0881578" lon="12.4807221"><ele>209.33333333333334</ele><time>2026-04-07T17:15:40.872Z</time></trkpt><trkpt lat="43.0882079" lon="12.4806685"><ele>209.5</ele><time>2026-04-07T17:15:42.873Z</time></trkpt><trkpt lat="43.088284" lon="12.4806987"><ele>209.66666666666669</ele><time>2026-04-07T17:15:44.873Z</time></trkpt><trkpt lat="43.088366" lon="12.4807466"><ele>209.83333333333334</ele><time>2026-04-07T17:15:46.873Z</time></trkpt><trkpt lat="43.0884476" lon="12.4807883"><ele>210.0</ele><time>2026-04-07T17:15:48.872Z</time></trkpt><trkpt lat="43.0885263" lon="12.4808282"><ele>210.33333333333334</ele><time>2026-04-07T17:15:50.872Z</time></trkpt><trkpt lat="43.0886066" lon="12.4808683"><ele>210.66666666666669</ele><time>2026-04-07T17:15:52.873Z</time></trkpt><trkpt lat="43.0886906" lon="12.4809095"><ele>211.0</ele><time>2026-04-07T17:15:54.872Z</time></trkpt><trkpt lat="43.0887723" lon="12.4809511"><ele>211.33333333333334</ele><time>2026-04-07T17:15:56.872Z</time></trkpt><trkpt lat="43.0888536" lon="12.4809893"><ele>211.66666666666669</ele><time>2026-04-07T17:15:58.871Z</time></trkpt><trkpt lat="43.0889442" lon="12.4810259"><ele>212.0</ele><time>2026-04-07T17:16:00.871Z</time></trkpt><trkpt lat="43.0890302" lon="12.4810718"><ele>212.33333333333334</ele><time>2026-04-07T17:16:02.871Z</time></trkpt><trkpt lat="43.0891138" lon="12.4811114"><ele>212.66666666666669</ele><time>2026-04-07T17:16:04.873Z</time></trkpt><trkpt lat="43.0891989" lon="12.4811494"><ele>213.0</ele><time>2026-04-07T17:16:06.872Z</time></trkpt><trkpt lat="43.0892765" lon="12.4811525"><ele>213.33333333333331</ele><time>2026-04-07T17:16:08.872Z</time></trkpt><trkpt lat="43.0893417" lon="12.4810884"><ele>213.66666666666666</ele><time>2026-04-07T17:16:10.872Z</time></trkpt><trkpt lat="43.0893893" lon="12.4809978"><ele>214.0</ele><time>2026-04-07T17:16:12.871Z</time></trkpt><trkpt lat="43.0894281" lon="12.4808979"><ele>213.99999999999997</ele><time>2026-04-07T17:16:14.872Z</time></trkpt><trkpt lat="43.0894698" lon="12.4807965"><ele>214.0</ele><time>2026-04-07T17:16:16.872Z</time></trkpt><trkpt lat="43.089507" lon="12.4806915"><ele>214.0</ele><time>2026-04-07T17:16:18.872Z</time></trkpt><trkpt lat="43.0895474" lon="12.4805869"><ele>214.0</ele><time>2026-04-07T17:16:20.873Z</time></trkpt><trkpt lat="43.0895884" lon="12.4804833"><ele>213.99999999999997</ele><time>2026-04-07T17:16:22.873Z</time></trkpt><trkpt lat="43.0896316" lon="12.4803787"><ele>214.0</ele><time>2026-04-07T17:16:24.872Z</time></trkpt><trkpt lat="43.0896726" lon="12.4802731"><ele>213.99999999999997</ele><time>2026-04-07T17:16:26.872Z</time></trkpt><trkpt lat="43.089713" lon="12.4801701"><ele>214.0</ele><time>2026-04-07T17:16:28.872Z</time></trkpt><trkpt lat="43.0897531" lon="12.4800706"><ele>214.0</ele><time>2026-04-07T17:16:30.872Z</time></trkpt><trkpt lat="43.0897896" lon="12.4799683"><ele>214.0</ele><time>2026-04-07T17:16:32.872Z</time></trkpt><trkpt lat="43.089834" lon="12.4798746"><ele>213.99999999999997</ele><time>2026-04-07T17:16:34.872Z</time></trkpt><trkpt lat="43.0899028" lon="12.479826"><ele>214.0</ele><time>2026-04-07T17:16:36.872Z</time></trkpt><trkpt lat="43.0899803" lon="12.4798281"><ele>214.16666666666666</ele><time>2026-04-07T17:16:38.872Z</time></trkpt><trkpt lat="43.09006" lon="12.4798539"><ele>214.33333333333331</ele><time>2026-04-07T17:16:40.871Z</time></trkpt><trkpt lat="43.090138" lon="12.4798932"><ele>214.5</ele><time>2026-04-07T17:16:42.872Z</time></trkpt><trkpt lat="43.0902187" lon="12.4799332"><ele>214.66666666666669</ele><time>2026-04-07T17:16:44.873Z</time></trkpt><trkpt lat="43.0903026" lon="12.4799719"><ele>214.83333333333334</ele><time>2026-04-07T17:16:46.872Z</time></trkpt><trkpt lat="43.0903848" lon="12.4800096"><ele>215.0</ele><time>2026-04-07T17:16:48.873Z</time></trkpt><trkpt lat="43.0904657" lon="12.4800502"><ele>215.00000000000003</ele><time>2026-04-07T17:16:50.873Z</time></trkpt><trkpt lat="43.0905474" lon="12.4800885"><ele>215.0</ele><time>2026-04-07T17:16:52.872Z</time></trkpt><trkpt lat="43.0906327" lon="12.4801231"><ele>215.0</ele><time>2026-04-07T17:16:54.873Z</time></trkpt><trkpt lat="43.090717" lon="12.4801624"><ele>215.0</ele><time>2026-04-07T17:16:56.872Z</time></trkpt><trkpt lat="43.0908043" lon="12.4802043"><ele>215.00000000000003</ele><time>2026-04-07T17:16:58.873Z</time></trkpt><trkpt lat="43.0908915" lon="12.4802425"><ele>215.0</ele><time>2026-04-07T17:17:00.873Z</time></trkpt><trkpt lat="43.0909796" lon="12.4802726"><ele>215.00000000000003</ele><time>2026-04-07T17:17:02.872Z</time></trkpt><trkpt lat="43.0910608" lon="12.4803109"><ele>215.0</ele><time>2026-04-07T17:17:04.872Z</time></trkpt><trkpt lat="43.0911431" lon="12.4803513"><ele>215.0</ele><time>2026-04-07T17:17:06.871Z</time></trkpt><trkpt lat="43.0912279" lon="12.4803952"><ele>215.0</ele><time>2026-04-07T17:17:08.872Z</time></trkpt><trkpt lat="43.0913139" lon="12.4804355"><ele>215.00000000000003</ele><time>2026-04-07T17:17:10.871Z</time></trkpt><trkpt lat="43.0914018" lon="12.4804756"><ele>215.0</ele><time>2026-04-07T17:17:12.872Z</time></trkpt><trkpt lat="43.0914899" lon="12.4805131"><ele>215.00000000000003</ele><time>2026-04-07T17:17:14.872Z</time></trkpt><trkpt lat="43.0915753" lon="12.4805525"><ele>215.0</ele><time>2026-04-07T17:17:16.873Z</time></trkpt><trkpt lat="43.0916616" lon="12.4805901"><ele>215.0</ele><time>2026-04-07T17:17:18.873Z</time></trkpt><trkpt lat="43.0917438" lon="12.480632"><ele>215.0</ele><time>2026-04-07T17:17:20.872Z</time></trkpt><trkpt lat="43.0918258" lon="12.4806655"><ele>215.00000000000003</ele><time>2026-04-07T17:17:22.872Z</time></trkpt><trkpt lat="43.091908" lon="12.4807029"><ele>215.0</ele><time>2026-04-07T17:17:24.872Z</time></trkpt><trkpt lat="43.0919869" lon="12.4807427"><ele>215.00000000000003</ele><time>2026-04-07T17:17:26.872Z</time></trkpt><trkpt lat="43.0920655" lon="12.4807825"><ele>215.0</ele><time>2026-04-07T17:17:28.872Z</time></trkpt><trkpt lat="43.0921467" lon="12.4808207"><ele>215.0</ele><time>2026-04-07T17:17:30.873Z</time></trkpt><trkpt lat="43.0922264" lon="12.4808599"><ele>215.0</ele><time>2026-04-07T17:17:32.872Z</time></trkpt><trkpt lat="43.0923059" lon="12.4808961"><ele>215.00000000000003</ele><time>2026-04-07T17:17:34.872Z</time></trkpt><trkpt lat="43.0923874" lon="12.4809327"><ele>215.0</ele><time>2026-04-07T17:17:36.872Z</time></trkpt><trkpt lat="43.0924702" lon="12.4809735"><ele>215.00000000000003</ele><time>2026-04-07T17:17:38.872Z</time></trkpt><trkpt lat="43.0925601" lon="12.4810093"><ele>215.0</ele><time>2026-04-07T17:17:40.872Z</time></trkpt><trkpt lat="43.0926448" lon="12.4810494"><ele>215.0</ele><time>2026-04-07T17:17:42.872Z</time></trkpt><trkpt lat="43.0927292" lon="12.4810917"><ele>215.0</ele><time>2026-04-07T17:17:44.871Z</time></trkpt><trkpt lat="43.0928071" lon="12.4811284"><ele>215.00000000000003</ele><time>2026-04-07T17:17:46.872Z</time></trkpt><trkpt lat="43.0928859" lon="12.4811682"><ele>215.0</ele><time>2026-04-07T17:17:48.873Z</time></trkpt><trkpt lat="43.0929679" lon="12.4811995"><ele>215.00000000000003</ele><time>2026-04-07T17:17:50.873Z</time></trkpt><trkpt lat="43.0930503" lon="12.4812398"><ele>215.0</ele><time>2026-04-07T17:17:52.872Z</time></trkpt><trkpt lat="43.093132" lon="12.4812804"><ele>215.0</ele><time>2026-04-07T17:17:54.872Z</time></trkpt><trkpt lat="43.0932127" lon="12.4813159"><ele>215.0</ele><time>2026-04-07T17:17:56.872Z</time></trkpt><trkpt lat="43.0932889" lon="12.4813554"><ele>215.00000000000003</ele><time>2026-04-07T17:17:58.873Z</time></trkpt><trkpt lat="43.0933667" lon="12.481393"><ele>215.0</ele><time>2026-04-07T17:18:00.871Z</time></trkpt><trkpt lat="43.0934453" lon="12.4814308"><ele>215.66666666666669</ele><time>2026-04-07T17:18:02.873Z</time></trkpt><trkpt lat="43.0935225" lon="12.4814689"><ele>216.33333333333334</ele><time>2026-04-07T17:18:04.873Z</time></trkpt><trkpt lat="43.0935976" lon="12.4815051"><ele>217.0</ele><time>2026-04-07T17:18:06.873Z</time></trkpt><trkpt lat="43.0936654" lon="12.4815364"><ele>217.66666666666669</ele><time>2026-04-07T17:18:08.872Z</time></trkpt><trkpt lat="43.0937466" lon="12.4815691"><ele>218.33333333333334</ele><time>2026-04-07T17:18:11.873Z</time></trkpt><trkpt lat="43.0938081" lon="12.4815923"><ele>219.0</ele><time>2026-04-07T17:18:44.871Z</time></trkpt><trkpt lat="43.0938936" lon="12.4816454"><ele>219.0</ele><time>2026-04-07T17:18:47.872Z</time></trkpt><trkpt lat="43.0939716" lon="12.481682"><ele>219.0</ele><time>2026-04-07T17:18:49.872Z</time></trkpt><trkpt lat="43.0940538" lon="12.4817208"><ele>219.0</ele><time>2026-04-07T17:18:51.873Z</time></trkpt><trkpt lat="43.0941319" lon="12.4817586"><ele>219.0</ele><time>2026-04-07T17:18:53.872Z</time></trkpt><trkpt lat="43.0942076" lon="12.4817913"><ele>219.0</ele><time>2026-04-07T17:18:55.872Z</time></trkpt><trkpt lat="43.0942841" lon="12.4818263"><ele>219.0</ele><time>2026-04-07T17:18:57.872Z</time></trkpt><trkpt lat="43.0943605" lon="12.4818571"><ele>219.33333333333334</ele><time>2026-04-07T17:18:59.873Z</time></trkpt><trkpt lat="43.0944394" lon="12.4818939"><ele>219.66666666666669</ele><time>2026-04-07T17:19:01.872Z</time></trkpt><trkpt lat="43.0945193" lon="12.481929"><ele>220.0</ele><time>2026-04-07T17:19:03.873Z</time></trkpt><trkpt lat="43.0945969" lon="12.4819624"><ele>220.33333333333334</ele><time>2026-04-07T17:19:05.872Z</time></trkpt><trkpt lat="43.0946738" lon="12.4819965"><ele>220.66666666666669</ele><time>2026-04-07T17:19:07.872Z</time></trkpt><trkpt lat="43.0947487" lon="12.4820269"><ele>221.0</ele><time>2026-04-07T17:19:09.871Z</time></trkpt><trkpt lat="43.0948219" lon="12.4820633"><ele>221.33333333333334</ele><time>2026-04-07T17:19:11.871Z</time></trkpt><trkpt lat="43.0948942" lon="12.4821003"><ele>221.66666666666669</ele><time>2026-04-07T17:19:13.873Z</time></trkpt><trkpt lat="43.0949711" lon="12.4821361"><ele>222.0</ele><time>2026-04-07T17:19:15.872Z</time></trkpt><trkpt lat="43.0950499" lon="12.4821688"><ele>222.33333333333331</ele><time>2026-04-07T17:19:17.873Z</time></trkpt><trkpt lat="43.0951284" lon="12.4822036"><ele>222.66666666666666</ele><time>2026-04-07T17:19:19.872Z</time></trkpt><trkpt lat="43.0952052" lon="12.4822408"><ele>223.0</ele><time>2026-04-07T17:19:21.872Z</time></trkpt><trkpt lat="43.0952814" lon="12.4822779"><ele>223.66666666666666</ele><time>2026-04-07T17:19:23.873Z</time></trkpt><trkpt lat="43.0953603" lon="12.4823102"><ele>224.33333333333331</ele><time>2026-04-07T17:19:25.873Z</time></trkpt><trkpt lat="43.0954353" lon="12.4823468"><ele>225.0</ele><time>2026-04-07T17:19:27.872Z</time></trkpt><trkpt lat="43.0955099" lon="12.4823893"><ele>225.66666666666669</ele><time>2026-04-07T17:19:29.872Z</time></trkpt><trkpt lat="43.0955844" lon="12.4824396"><ele>226.33333333333334</ele><time>2026-04-07T17:19:31.871Z</time></trkpt><trkpt lat="43.0956491" lon="12.4825131"><ele>227.0</ele><time>2026-04-07T17:19:33.872Z</time></trkpt><trkpt lat="43.0956698" lon="12.4826269"><ele>227.0</ele><time>2026-04-07T17:19:35.872Z</time></trkpt><trkpt lat="43.0956641" lon="12.4827497"><ele>227.0</ele><time>2026-04-07T17:19:37.871Z</time></trkpt><trkpt lat="43.0956494" lon="12.4828715"><ele>227.0</ele><time>2026-04-07T17:19:39.871Z</time></trkpt><trkpt lat="43.0956412" lon="12.4829987"><ele>227.0</ele><time>2026-04-07T17:19:41.873Z</time></trkpt><trkpt lat="43.0956347" lon="12.4831299"><ele>227.0</ele><time>2026-04-07T17:19:43.872Z</time></trkpt><trkpt lat="43.0956294" lon="12.4832531"><ele>227.0</ele><time>2026-04-07T17:19:45.871Z</time></trkpt><trkpt lat="43.0956307" lon="12.4833748"><ele>227.0</ele><time>2026-04-07T17:19:47.872Z</time></trkpt><trkpt lat="43.0956263" lon="12.4835048"><ele>227.0</ele><time>2026-04-07T17:19:49.872Z</time></trkpt><trkpt lat="43.0956234" lon="12.4836366"><ele>227.0</ele><time>2026-04-07T17:19:51.871Z</time></trkpt><trkpt lat="43.0956099" lon="12.4837647"><ele>227.0</ele><time>2026-04-07T17:19:53.871Z</time></trkpt><trkpt lat="43.0955962" lon="12.4838903"><ele>227.0</ele><time>2026-04-07T17:19:55.873Z</time></trkpt><trkpt lat="43.0955274" lon="12.4839968"><ele>227.0</ele><time>2026-04-07T17:19:57.871Z</time></trkpt><trkpt lat="43.095434" lon="12.4840799"><ele>227.0</ele><time>2026-04-07T17:19:59.871Z</time></trkpt><trkpt lat="43.0953559" lon="12.4842085"><ele>227.0</ele><time>2026-04-07T17:20:01.872Z</time></trkpt><trkpt lat="43.0953168" lon="12.4842814"><ele>227.0</ele><time>2026-04-07T17:20:02.873Z</time></trkpt><trkpt lat="43.0952786" lon="12.4843598"><ele>227.00000000000003</ele><time>2026-04-07T17:20:03.872Z</time></trkpt><trkpt lat="43.0952409" lon="12.48444"><ele>227.0</ele><time>2026-04-07T17:20:04.873Z</time></trkpt><trkpt lat="43.0951995" lon="12.4845244"><ele>227.0</ele><time>2026-04-07T17:20:05.872Z</time></trkpt><trkpt lat="43.0951587" lon="12.4846117"><ele>227.0</ele><time>2026-04-07T17:20:06.873Z</time></trkpt><trkpt lat="43.0951157" lon="12.4847011"><ele>227.00000000000003</ele><time>2026-04-07T17:20:07.873Z</time></trkpt><trkpt lat="43.0950728" lon="12.4847938"><ele>227.0</ele><time>2026-04-07T17:20:08.873Z</time></trkpt><trkpt lat="43.0950301" lon="12.4848899"><ele>226.83333333333334</ele><time>2026-04-07T17:20:09.872Z</time></trkpt><trkpt lat="43.0949907" lon="12.4849913"><ele>226.66666666666669</ele><time>2026-04-07T17:20:10.871Z</time></trkpt><trkpt lat="43.0949494" lon="12.4850913"><ele>226.5</ele><time>2026-04-07T17:20:11.872Z</time></trkpt><trkpt lat="43.0949042" lon="12.4851923"><ele>226.33333333333331</ele><time>2026-04-07T17:20:12.872Z</time></trkpt><trkpt lat="43.0948597" lon="12.4852878"><ele>226.16666666666666</ele><time>2026-04-07T17:20:13.872Z</time></trkpt><trkpt lat="43.0948163" lon="12.4853874"><ele>226.0</ele><time>2026-04-07T17:20:14.872Z</time></trkpt><trkpt lat="43.0947726" lon="12.4854875"><ele>224.99999999999997</ele><time>2026-04-07T17:20:15.872Z</time></trkpt><trkpt lat="43.0947314" lon="12.4855868"><ele>224.0</ele><time>2026-04-07T17:20:16.872Z</time></trkpt><trkpt lat="43.0946921" lon="12.4856877"><ele>223.0</ele><time>2026-04-07T17:20:17.873Z</time></trkpt><trkpt lat="43.0946479" lon="12.4857848"><ele>222.0</ele><time>2026-04-07T17:20:18.873Z</time></trkpt><trkpt lat="43.094601" lon="12.485877"><ele>220.99999999999997</ele><time>2026-04-07T17:20:19.872Z</time></trkpt><trkpt lat="43.0945556" lon="12.485979"><ele>220.0</ele><time>2026-04-07T17:20:20.871Z</time></trkpt><trkpt lat="43.0945052" lon="12.4860769"><ele>220.0</ele><time>2026-04-07T17:20:21.872Z</time></trkpt><trkpt lat="43.0944521" lon="12.4861852"><ele>220.0</ele><time>2026-04-07T17:20:22.873Z</time></trkpt><trkpt lat="43.0944016" lon="12.4862959"><ele>220.0</ele><time>2026-04-07T17:20:23.872Z</time></trkpt><trkpt lat="43.0943501" lon="12.4864064"><ele>220.0</ele><time>2026-04-07T17:20:24.872Z</time></trkpt><trkpt lat="43.0942991" lon="12.4865156"><ele>220.0</ele><time>2026-04-07T17:20:25.871Z</time></trkpt><trkpt lat="43.0942483" lon="12.4866217"><ele>219.8</ele><time>2026-04-07T17:20:26.871Z</time></trkpt><trkpt lat="43.0941939" lon="12.4867234"><ele>219.6</ele><time>2026-04-07T17:20:27.872Z</time></trkpt><trkpt lat="43.0941428" lon="12.4868276"><ele>219.39999999999998</ele><time>2026-04-07T17:20:28.872Z</time></trkpt><trkpt lat="43.0940899" lon="12.4869279"><ele>219.2</ele><time>2026-04-07T17:20:29.872Z</time></trkpt><trkpt lat="43.0940362" lon="12.4870276"><ele>219.0</ele><time>2026-04-07T17:20:30.872Z</time></trkpt><trkpt lat="43.0939858" lon="12.4871321"><ele>217.5</ele><time>2026-04-07T17:20:31.872Z</time></trkpt><trkpt lat="43.0939357" lon="12.4872294"><ele>216.0</ele><time>2026-04-07T17:20:32.871Z</time></trkpt><trkpt lat="43.0938847" lon="12.4873282"><ele>214.5</ele><time>2026-04-07T17:20:33.872Z</time></trkpt><trkpt lat="43.0938324" lon="12.48743"><ele>213.0</ele><time>2026-04-07T17:20:34.871Z</time></trkpt><trkpt lat="43.0937795" lon="12.4875312"><ele>211.5</ele><time>2026-04-07T17:20:35.871Z</time></trkpt><trkpt lat="43.0937297" lon="12.4876291"><ele>210.0</ele><time>2026-04-07T17:20:36.871Z</time></trkpt><trkpt lat="43.0936757" lon="12.4877306"><ele>210.0</ele><time>2026-04-07T17:20:37.87Z</time></trkpt><trkpt lat="43.093624" lon="12.4878299"><ele>210.0</ele><time>2026-04-07T17:20:38.871Z</time></trkpt><trkpt lat="43.0935716" lon="12.4879314"><ele>210.0</ele><time>2026-04-07T17:20:39.871Z</time></trkpt><trkpt lat="43.0935207" lon="12.4880297"><ele>210.0</ele><time>2026-04-07T17:20:40.872Z</time></trkpt><trkpt lat="43.0934687" lon="12.4881288"><ele>210.0</ele><time>2026-04-07T17:20:41.872Z</time></trkpt><trkpt lat="43.0934172" lon="12.4882276"><ele>210.0</ele><time>2026-04-07T17:20:42.87Z</time></trkpt><trkpt lat="43.0933674" lon="12.4883282"><ele>210.0</ele><time>2026-04-07T17:20:43.871Z</time></trkpt><trkpt lat="43.0933187" lon="12.4884296"><ele>210.0</ele><time>2026-04-07T17:20:44.871Z</time></trkpt><trkpt lat="43.093271" lon="12.4885334"><ele>210.0</ele><time>2026-04-07T17:20:45.871Z</time></trkpt><trkpt lat="43.0932243" lon="12.4886375"><ele>210.0</ele><time>2026-04-07T17:20:46.871Z</time></trkpt><trkpt lat="43.0931753" lon="12.4887388"><ele>210.0</ele><time>2026-04-07T17:20:47.87Z</time></trkpt><trkpt lat="43.0931253" lon="12.4888426"><ele>210.0</ele><time>2026-04-07T17:20:48.871Z</time></trkpt><trkpt lat="43.0930779" lon="12.4889431"><ele>208.83333333333334</ele><time>2026-04-07T17:20:49.872Z</time></trkpt><trkpt lat="43.0930377" lon="12.4890362"><ele>207.66666666666669</ele><time>2026-04-07T17:20:50.87Z</time></trkpt><trkpt lat="43.093007" lon="12.4891141"><ele>206.5</ele><time>2026-04-07T17:20:51.871Z</time></trkpt><trkpt lat="43.0930013" lon="12.4892268"><ele>205.33333333333334</ele><time>2026-04-07T17:20:53.871Z</time></trkpt><trkpt lat="43.0930623" lon="12.489318"><ele>204.16666666666669</ele><time>2026-04-07T17:20:55.871Z</time></trkpt><trkpt lat="43.0931575" lon="12.4893742"><ele>203.0</ele><time>2026-04-07T17:20:57.87Z</time></trkpt><trkpt lat="43.0932554" lon="12.489454"><ele>203.25</ele><time>2026-04-07T17:20:59.872Z</time></trkpt><trkpt lat="43.0933559" lon="12.4895362"><ele>203.5</ele><time>2026-04-07T17:21:01.871Z</time></trkpt><trkpt lat="43.0934633" lon="12.4896269"><ele>203.75</ele><time>2026-04-07T17:21:03.87Z</time></trkpt><trkpt lat="43.0935656" lon="12.4897124"><ele>204.0</ele><time>2026-04-07T17:21:05.871Z</time></trkpt><trkpt lat="43.0936705" lon="12.4898068"><ele>204.0</ele><time>2026-04-07T17:21:07.871Z</time></trkpt><trkpt lat="43.093769" lon="12.4899064"><ele>204.0</ele><time>2026-04-07T17:21:09.872Z</time></trkpt><trkpt lat="43.0938676" lon="12.4900063"><ele>204.0</ele><time>2026-04-07T17:21:11.872Z</time></trkpt><trkpt lat="43.0939499" lon="12.4901189"><ele>204.0</ele><time>2026-04-07T17:21:13.871Z</time></trkpt><trkpt lat="43.094034" lon="12.4902383"><ele>203.79999999999998</ele><time>2026-04-07T17:21:15.871Z</time></trkpt><trkpt lat="43.0941236" lon="12.4903554"><ele>203.6</ele><time>2026-04-07T17:21:17.872Z</time></trkpt><trkpt lat="43.0941706" lon="12.4904174"><ele>203.4</ele><time>2026-04-07T17:21:18.871Z</time></trkpt><trkpt lat="43.0942502" lon="12.4905361"><ele>203.2</ele><time>2026-04-07T17:21:20.872Z</time></trkpt><trkpt lat="43.0943279" lon="12.490654"><ele>203.0</ele><time>2026-04-07T17:21:22.872Z</time></trkpt><trkpt lat="43.0944099" lon="12.4907723"><ele>203.0</ele><time>2026-04-07T17:21:24.871Z</time></trkpt><trkpt lat="43.0944895" lon="12.4908817"><ele>203.0</ele><time>2026-04-07T17:21:26.871Z</time></trkpt><trkpt lat="43.0945673" lon="12.4909899"><ele>203.0</ele><time>2026-04-07T17:21:28.871Z</time></trkpt><trkpt lat="43.0946493" lon="12.4911015"><ele>203.0</ele><time>2026-04-07T17:21:30.871Z</time></trkpt><trkpt lat="43.0947372" lon="12.4912019"><ele>203.25</ele><time>2026-04-07T17:21:32.871Z</time></trkpt><trkpt lat="43.0948287" lon="12.491304"><ele>203.5</ele><time>2026-04-07T17:21:34.871Z</time></trkpt><trkpt lat="43.0949231" lon="12.4913962"><ele>203.75</ele><time>2026-04-07T17:21:36.872Z</time></trkpt><trkpt lat="43.0950283" lon="12.4914855"><ele>204.0</ele><time>2026-04-07T17:21:38.871Z</time></trkpt><trkpt lat="43.0951287" lon="12.4915698"><ele>204.75</ele><time>2026-04-07T17:21:40.871Z</time></trkpt><trkpt lat="43.0952278" lon="12.4916484"><ele>205.5</ele><time>2026-04-07T17:21:42.87Z</time></trkpt><trkpt lat="43.0953347" lon="12.4917202"><ele>206.25</ele><time>2026-04-07T17:21:44.872Z</time></trkpt><trkpt lat="43.0954382" lon="12.4917935"><ele>207.0</ele><time>2026-04-07T17:21:46.872Z</time></trkpt><trkpt lat="43.0955481" lon="12.4918711"><ele>207.0</ele><time>2026-04-07T17:21:48.871Z</time></trkpt><trkpt lat="43.095653" lon="12.4919371"><ele>207.0</ele><time>2026-04-07T17:21:50.872Z</time></trkpt><trkpt lat="43.0957115" lon="12.4919749"><ele>207.0</ele><time>2026-04-07T17:21:51.872Z</time></trkpt><trkpt lat="43.0958137" lon="12.4920301"><ele>207.0</ele><time>2026-04-07T17:21:53.87Z</time></trkpt><trkpt lat="43.0959172" lon="12.4920994"><ele>207.0</ele><time>2026-04-07T17:21:55.872Z</time></trkpt><trkpt lat="43.0960028" lon="12.4921937"><ele>206.8</ele><time>2026-04-07T17:21:57.87Z</time></trkpt><trkpt lat="43.0960387" lon="12.492352"><ele>206.6</ele><time>2026-04-07T17:21:59.871Z</time></trkpt><trkpt lat="43.096015" lon="12.4925182"><ele>206.4</ele><time>2026-04-07T17:22:01.871Z</time></trkpt><trkpt lat="43.0960023" lon="12.4926051"><ele>206.20000000000002</ele><time>2026-04-07T17:22:02.871Z</time></trkpt><trkpt lat="43.0959876" lon="12.4926901"><ele>206.0</ele><time>2026-04-07T17:22:03.87Z</time></trkpt><trkpt lat="43.0959703" lon="12.4928536"><ele>205.4</ele><time>2026-04-07T17:22:05.872Z</time></trkpt><trkpt lat="43.0959481" lon="12.493023"><ele>204.8</ele><time>2026-04-07T17:22:07.87Z</time></trkpt><trkpt lat="43.0959227" lon="12.4931918"><ele>204.20000000000002</ele><time>2026-04-07T17:22:09.87Z</time></trkpt><trkpt lat="43.0958982" lon="12.4933587"><ele>203.60000000000002</ele><time>2026-04-07T17:22:11.872Z</time></trkpt><trkpt lat="43.0958852" lon="12.4934448"><ele>203.0</ele><time>2026-04-07T17:22:12.87Z</time></trkpt><trkpt lat="43.0958661" lon="12.4936177"><ele>203.00000000000003</ele><time>2026-04-07T17:22:14.87Z</time></trkpt><trkpt lat="43.0958533" lon="12.4937033"><ele>203.0</ele><time>2026-04-07T17:22:15.871Z</time></trkpt><trkpt lat="43.0958255" lon="12.49387"><ele>203.0</ele><time>2026-04-07T17:22:17.87Z</time></trkpt><trkpt lat="43.0958044" lon="12.4939542"><ele>203.0</ele><time>2026-04-07T17:22:18.871Z</time></trkpt><trkpt lat="43.0957553" lon="12.4941068"><ele>203.00000000000003</ele><time>2026-04-07T17:22:20.872Z</time></trkpt><trkpt lat="43.0957258" lon="12.4941876"><ele>203.0</ele><time>2026-04-07T17:22:21.87Z</time></trkpt><trkpt lat="43.0956663" lon="12.4943328"><ele>202.8</ele><time>2026-04-07T17:22:23.871Z</time></trkpt><trkpt lat="43.0956083" lon="12.4944748"><ele>202.60000000000002</ele><time>2026-04-07T17:22:25.871Z</time></trkpt><trkpt lat="43.0955559" lon="12.4946134"><ele>202.39999999999998</ele><time>2026-04-07T17:22:27.871Z</time></trkpt><trkpt lat="43.0955116" lon="12.4947431"><ele>202.2</ele><time>2026-04-07T17:22:29.871Z</time></trkpt><trkpt lat="43.0954621" lon="12.4948665"><ele>202.0</ele><time>2026-04-07T17:22:31.87Z</time></trkpt><trkpt lat="43.0954098" lon="12.4949919"><ele>201.99999999999997</ele><time>2026-04-07T17:22:33.872Z</time></trkpt><trkpt lat="43.0953678" lon="12.4951075"><ele>202.0</ele><time>2026-04-07T17:22:35.872Z</time></trkpt><trkpt lat="43.0953236" lon="12.4952147"><ele>202.0</ele><time>2026-04-07T17:22:37.871Z</time></trkpt><trkpt lat="43.0952774" lon="12.4953283"><ele>202.0</ele><time>2026-04-07T17:22:39.872Z</time></trkpt><trkpt lat="43.0952376" lon="12.4954322"><ele>201.99999999999997</ele><time>2026-04-07T17:22:41.872Z</time></trkpt><trkpt lat="43.0952002" lon="12.49553"><ele>202.0</ele><time>2026-04-07T17:22:43.871Z</time></trkpt><trkpt lat="43.0951608" lon="12.4956179"><ele>202.0</ele><time>2026-04-07T17:22:45.871Z</time></trkpt><trkpt lat="43.0951559" lon="12.4957171"><ele>202.0</ele><time>2026-04-07T17:22:48.871Z</time></trkpt><trkpt lat="43.0952055" lon="12.4956014"><ele>202.0</ele><time>2026-04-07T17:22:51.872Z</time></trkpt><trkpt lat="43.0952457" lon="12.4954728"><ele>202.0</ele><time>2026-04-07T17:22:53.871Z</time></trkpt><trkpt lat="43.0953004" lon="12.4953488"><ele>202.0</ele><time>2026-04-07T17:22:55.872Z</time></trkpt><trkpt lat="43.0953471" lon="12.4952112"><ele>202.0</ele><time>2026-04-07T17:22:57.87Z</time></trkpt><trkpt lat="43.0953984" lon="12.495084"><ele>202.0</ele><time>2026-04-07T17:22:59.872Z</time></trkpt><trkpt lat="43.0954458" lon="12.4949678"><ele>202.0</ele><time>2026-04-07T17:23:01.87Z</time></trkpt><trkpt lat="43.0955195" lon="12.4948877"><ele>202.0</ele><time>2026-04-07T17:23:03.872Z</time></trkpt><trkpt lat="43.0956167" lon="12.4949215"><ele>202.0</ele><time>2026-04-07T17:23:05.872Z</time></trkpt><trkpt lat="43.0957013" lon="12.4949825"><ele>202.39999999999998</ele><time>2026-04-07T17:23:07.871Z</time></trkpt><trkpt lat="43.0957954" lon="12.4950456"><ele>202.79999999999998</ele><time>2026-04-07T17:23:09.871Z</time></trkpt><trkpt lat="43.095889" lon="12.4951197"><ele>203.2</ele><time>2026-04-07T17:23:11.871Z</time></trkpt><trkpt lat="43.0959804" lon="12.4951848"><ele>203.6</ele><time>2026-04-07T17:23:13.871Z</time></trkpt><trkpt lat="43.096068" lon="12.4952496"><ele>204.0</ele><time>2026-04-07T17:23:15.872Z</time></trkpt><trkpt lat="43.0961602" lon="12.4953245"><ele>204.0</ele><time>2026-04-07T17:23:17.87Z</time></trkpt><trkpt lat="43.0962551" lon="12.4953975"><ele>204.0</ele><time>2026-04-07T17:23:19.871Z</time></trkpt><trkpt lat="43.0963571" lon="12.4954676"><ele>204.0</ele><time>2026-04-07T17:23:21.872Z</time></trkpt><trkpt lat="43.0964604" lon="12.4955404"><ele>204.0</ele><time>2026-04-07T17:23:23.871Z</time></trkpt><trkpt lat="43.0965593" lon="12.4956106"><ele>203.79999999999998</ele><time>2026-04-07T17:23:25.871Z</time></trkpt><trkpt lat="43.0966638" lon="12.4956765"><ele>203.6</ele><time>2026-04-07T17:23:27.87Z</time></trkpt><trkpt lat="43.0967562" lon="12.4957701"><ele>203.4</ele><time>2026-04-07T17:23:29.871Z</time></trkpt><trkpt lat="43.0968417" lon="12.4958466"><ele>203.2</ele><time>2026-04-07T17:23:31.87Z</time></trkpt><trkpt lat="43.0969389" lon="12.4959301"><ele>203.0</ele><time>2026-04-07T17:23:33.87Z</time></trkpt><trkpt lat="43.0970143" lon="12.4960089"><ele>203.0</ele><time>2026-04-07T17:23:35.872Z</time></trkpt><trkpt lat="43.0970825" lon="12.4960777"><ele>203.0</ele><time>2026-04-07T17:23:37.871Z</time></trkpt><trkpt lat="43.0971791" lon="12.4961418"><ele>203.0</ele><time>2026-04-07T17:23:39.872Z</time></trkpt><trkpt lat="43.0972879" lon="12.4961748"><ele>203.0</ele><time>2026-04-07T17:23:41.872Z</time></trkpt><trkpt lat="43.0974044" lon="12.4961913"><ele>203.0</ele><time>2026-04-07T17:23:43.87Z</time></trkpt><trkpt lat="43.0975214" lon="12.4962056"><ele>203.0</ele><time>2026-04-07T17:23:45.871Z</time></trkpt><trkpt lat="43.0976464" lon="12.4962073"><ele>203.0</ele><time>2026-04-07T17:23:47.871Z</time></trkpt><trkpt lat="43.0977675" lon="12.4962189"><ele>203.0</ele><time>2026-04-07T17:23:49.872Z</time></trkpt><trkpt lat="43.0978798" lon="12.4962598"><ele>203.0</ele><time>2026-04-07T17:23:51.872Z</time></trkpt><trkpt lat="43.0979889" lon="12.4963205"><ele>203.25</ele><time>2026-04-07T17:23:53.871Z</time></trkpt><trkpt lat="43.0980783" lon="12.4963926"><ele>203.5</ele><time>2026-04-07T17:23:55.871Z</time></trkpt><trkpt lat="43.098179" lon="12.4964665"><ele>203.75</ele><time>2026-04-07T17:23:57.87Z</time></trkpt><trkpt lat="43.0982831" lon="12.4965375"><ele>204.0</ele><time>2026-04-07T17:23:59.872Z</time></trkpt><trkpt lat="43.0983838" lon="12.4966178"><ele>204.0</ele><time>2026-04-07T17:24:01.871Z</time></trkpt><trkpt lat="43.0984828" lon="12.4967006"><ele>204.0</ele><time>2026-04-07T17:24:03.871Z</time></trkpt><trkpt lat="43.0985814" lon="12.4967862"><ele>204.0</ele><time>2026-04-07T17:24:05.872Z</time></trkpt><trkpt lat="43.0986788" lon="12.496872"><ele>204.0</ele><time>2026-04-07T17:24:07.87Z</time></trkpt><trkpt lat="43.0987757" lon="12.4969583"><ele>204.0</ele><time>2026-04-07T17:24:09.871Z</time></trkpt><trkpt lat="43.098869" lon="12.49704"><ele>204.0</ele><time>2026-04-07T17:24:11.87Z</time></trkpt><trkpt lat="43.0989669" lon="12.4971291"><ele>204.0</ele><time>2026-04-07T17:24:13.871Z</time></trkpt><trkpt lat="43.0990653" lon="12.4972127"><ele>204.0</ele><time>2026-04-07T17:24:15.87Z</time></trkpt><trkpt lat="43.0991618" lon="12.497304"><ele>204.25</ele><time>2026-04-07T17:24:17.871Z</time></trkpt><trkpt lat="43.0992578" lon="12.4973918"><ele>204.5</ele><time>2026-04-07T17:24:19.871Z</time></trkpt><trkpt lat="43.099365" lon="12.4974694"><ele>204.75</ele><time>2026-04-07T17:24:21.872Z</time></trkpt><trkpt lat="43.0994704" lon="12.4975372"><ele>205.0</ele><time>2026-04-07T17:24:23.871Z</time></trkpt><trkpt lat="43.0995738" lon="12.4976048"><ele>205.0</ele><time>2026-04-07T17:24:25.871Z</time></trkpt><trkpt lat="43.0996776" lon="12.4976641"><ele>205.0</ele><time>2026-04-07T17:24:27.87Z</time></trkpt><trkpt lat="43.0997832" lon="12.4977215"><ele>205.0</ele><time>2026-04-07T17:24:29.872Z</time></trkpt><trkpt lat="43.0998882" lon="12.4977742"><ele>205.0</ele><time>2026-04-07T17:24:31.871Z</time></trkpt><trkpt lat="43.0999974" lon="12.4978286"><ele>204.75</ele><time>2026-04-07T17:24:33.871Z</time></trkpt><trkpt lat="43.1001091" lon="12.4978745"><ele>204.5</ele><time>2026-04-07T17:24:35.871Z</time></trkpt><trkpt lat="43.1002242" lon="12.497917"><ele>204.25</ele><time>2026-04-07T17:24:37.871Z</time></trkpt><trkpt lat="43.1003399" lon="12.4979527"><ele>204.0</ele><time>2026-04-07T17:24:39.872Z</time></trkpt><trkpt lat="43.1004457" lon="12.4979881"><ele>204.0</ele><time>2026-04-07T17:24:41.871Z</time></trkpt><trkpt lat="43.1005566" lon="12.4980341"><ele>204.0</ele><time>2026-04-07T17:24:43.87Z</time></trkpt><trkpt lat="43.1006583" lon="12.4980948"><ele>204.0</ele><time>2026-04-07T17:24:45.87Z</time></trkpt><trkpt lat="43.1007637" lon="12.4981466"><ele>204.0</ele><time>2026-04-07T17:24:47.87Z</time></trkpt><trkpt lat="43.1008704" lon="12.4982081"><ele>204.5</ele><time>2026-04-07T17:24:49.871Z</time></trkpt><trkpt lat="43.1009778" lon="12.4982739"><ele>205.0</ele><time>2026-04-07T17:24:51.872Z</time></trkpt><trkpt lat="43.1010845" lon="12.4983607"><ele>205.5</ele><time>2026-04-07T17:24:53.871Z</time></trkpt><trkpt lat="43.1011828" lon="12.4984483"><ele>206.0</ele><time>2026-04-07T17:24:55.872Z</time></trkpt><trkpt lat="43.1012766" lon="12.4985377"><ele>206.0</ele><time>2026-04-07T17:24:57.871Z</time></trkpt><trkpt lat="43.1013715" lon="12.4986356"><ele>206.0</ele><time>2026-04-07T17:24:59.872Z</time></trkpt><trkpt lat="43.101458" lon="12.4987382"><ele>206.0</ele><time>2026-04-07T17:25:01.87Z</time></trkpt><trkpt lat="43.1015445" lon="12.4988496"><ele>206.0</ele><time>2026-04-07T17:25:03.871Z</time></trkpt><trkpt lat="43.1016258" lon="12.4989598"><ele>206.0</ele><time>2026-04-07T17:25:05.872Z</time></trkpt><trkpt lat="43.1017089" lon="12.4990846"><ele>206.0</ele><time>2026-04-07T17:25:07.87Z</time></trkpt><trkpt lat="43.1017937" lon="12.4991986"><ele>206.0</ele><time>2026-04-07T17:25:09.871Z</time></trkpt><trkpt lat="43.101884" lon="12.499307"><ele>206.0</ele><time>2026-04-07T17:25:11.871Z</time></trkpt><trkpt lat="43.1019795" lon="12.499408"><ele>206.0</ele><time>2026-04-07T17:25:13.871Z</time></trkpt><trkpt lat="43.1020662" lon="12.4995124"><ele>206.0</ele><time>2026-04-07T17:25:15.872Z</time></trkpt><trkpt lat="43.1021575" lon="12.4996148"><ele>206.0</ele><time>2026-04-07T17:25:17.872Z</time></trkpt><trkpt lat="43.1022448" lon="12.4997129"><ele>206.0</ele><time>2026-04-07T17:25:19.87Z</time></trkpt><trkpt lat="43.1023389" lon="12.4997995"><ele>206.5</ele><time>2026-04-07T17:25:21.872Z</time></trkpt><trkpt lat="43.1024295" lon="12.4999019"><ele>207.0</ele><time>2026-04-07T17:25:23.871Z</time></trkpt><trkpt lat="43.1025212" lon="12.4999998"><ele>207.5</ele><time>2026-04-07T17:25:25.87Z</time></trkpt><trkpt lat="43.1026162" lon="12.5001068"><ele>208.0</ele><time>2026-04-07T17:25:27.87Z</time></trkpt><trkpt lat="43.1026919" lon="12.5002275"><ele>208.0</ele><time>2026-04-07T17:25:29.872Z</time></trkpt><trkpt lat="43.1027702" lon="12.5003528"><ele>208.0</ele><time>2026-04-07T17:25:31.871Z</time></trkpt><trkpt lat="43.1028517" lon="12.5004763"><ele>208.0</ele><time>2026-04-07T17:25:33.871Z</time></trkpt><trkpt lat="43.1029023" lon="12.5005329"><ele>208.0</ele><time>2026-04-07T17:25:34.872Z</time></trkpt><trkpt lat="43.1030018" lon="12.5006192"><ele>208.0</ele><time>2026-04-07T17:25:36.871Z</time></trkpt><trkpt lat="43.1031049" lon="12.500675"><ele>208.2</ele><time>2026-04-07T17:25:38.871Z</time></trkpt><trkpt lat="43.1032154" lon="12.5007235"><ele>208.4</ele><time>2026-04-07T17:25:40.871Z</time></trkpt><trkpt lat="43.1033139" lon="12.5007503"><ele>208.6</ele><time>2026-04-07T17:25:42.872Z</time></trkpt><trkpt lat="43.1034195" lon="12.5007857"><ele>208.79999999999998</ele><time>2026-04-07T17:25:44.871Z</time></trkpt><trkpt lat="43.103519" lon="12.5008117"><ele>209.0</ele><time>2026-04-07T17:25:46.87Z</time></trkpt><trkpt lat="43.103627" lon="12.5008495"><ele>209.0</ele><time>2026-04-07T17:25:48.871Z</time></trkpt><trkpt lat="43.10373" lon="12.5008897"><ele>209.0</ele><time>2026-04-07T17:25:50.871Z</time></trkpt><trkpt lat="43.1038268" lon="12.5009394"><ele>209.0</ele><time>2026-04-07T17:25:52.871Z</time></trkpt><trkpt lat="43.1039317" lon="12.5009993"><ele>209.0</ele><time>2026-04-07T17:25:54.871Z</time></trkpt><trkpt lat="43.1040209" lon="12.5010644"><ele>209.0</ele><time>2026-04-07T17:25:56.871Z</time></trkpt><trkpt lat="43.1041256" lon="12.5011298"><ele>208.75</ele><time>2026-04-07T17:25:58.87Z</time></trkpt><trkpt lat="43.1042297" lon="12.5012036"><ele>208.5</ele><time>2026-04-07T17:26:00.871Z</time></trkpt><trkpt lat="43.1043326" lon="12.5012673"><ele>208.25</ele><time>2026-04-07T17:26:02.872Z</time></trkpt><trkpt lat="43.1044322" lon="12.5013353"><ele>208.0</ele><time>2026-04-07T17:26:04.87Z</time></trkpt><trkpt lat="43.104531" lon="12.501409"><ele>208.0</ele><time>2026-04-07T17:26:06.87Z</time></trkpt><trkpt lat="43.1046275" lon="12.5014769"><ele>208.0</ele><time>2026-04-07T17:26:08.872Z</time></trkpt><trkpt lat="43.1047307" lon="12.5015489"><ele>208.0</ele><time>2026-04-07T17:26:10.871Z</time></trkpt><trkpt lat="43.1048298" lon="12.5016213"><ele>208.0</ele><time>2026-04-07T17:26:12.871Z</time></trkpt><trkpt lat="43.1049281" lon="12.5016919"><ele>208.0</ele><time>2026-04-07T17:26:14.871Z</time></trkpt><trkpt lat="43.1050212" lon="12.5017622"><ele>208.2</ele><time>2026-04-07T17:26:16.872Z</time></trkpt><trkpt lat="43.1051124" lon="12.5018295"><ele>208.4</ele><time>2026-04-07T17:26:18.87Z</time></trkpt><trkpt lat="43.1052039" lon="12.5018952"><ele>208.6</ele><time>2026-04-07T17:26:20.871Z</time></trkpt><trkpt lat="43.1053037" lon="12.5019626"><ele>208.79999999999998</ele><time>2026-04-07T17:26:22.871Z</time></trkpt><trkpt lat="43.1054052" lon="12.5020374"><ele>209.0</ele><time>2026-04-07T17:26:24.87Z</time></trkpt><trkpt lat="43.105505" lon="12.5021092"><ele>209.0</ele><time>2026-04-07T17:26:26.871Z</time></trkpt><trkpt lat="43.1055991" lon="12.5021758"><ele>209.0</ele><time>2026-04-07T17:26:28.871Z</time></trkpt><trkpt lat="43.1056938" lon="12.5022361"><ele>209.0</ele><time>2026-04-07T17:26:30.872Z</time></trkpt><trkpt lat="43.1057746" lon="12.502288"><ele>209.0</ele><time>2026-04-07T17:26:32.87Z</time></trkpt><trkpt lat="43.1058438" lon="12.5023502"><ele>209.0</ele><time>2026-04-07T17:26:34.87Z</time></trkpt><trkpt lat="43.1059175" lon="12.5024291"><ele>210.0</ele><time>2026-04-07T17:26:36.872Z</time></trkpt><trkpt lat="43.1060023" lon="12.5025136"><ele>211.0</ele><time>2026-04-07T17:26:38.872Z</time></trkpt><trkpt lat="43.1060909" lon="12.5025962"><ele>211.99999999999997</ele><time>2026-04-07T17:26:40.872Z</time></trkpt><trkpt lat="43.1061791" lon="12.5026752"><ele>213.0</ele><time>2026-04-07T17:26:42.871Z</time></trkpt><trkpt lat="43.1062687" lon="12.502741"><ele>214.0</ele><time>2026-04-07T17:26:44.871Z</time></trkpt><trkpt lat="43.1063659" lon="12.5028169"><ele>214.0</ele><time>2026-04-07T17:26:46.871Z</time></trkpt><trkpt lat="43.1064735" lon="12.5028901"><ele>213.99999999999997</ele><time>2026-04-07T17:26:48.87Z</time></trkpt><trkpt lat="43.1065789" lon="12.5029539"><ele>213.99999999999997</ele><time>2026-04-07T17:26:50.872Z</time></trkpt><trkpt lat="43.1066772" lon="12.5030098"><ele>214.0</ele><time>2026-04-07T17:26:52.871Z</time></trkpt><trkpt lat="43.106754" lon="12.5030637"><ele>214.0</ele><time>2026-04-07T17:26:54.872Z</time></trkpt><trkpt lat="43.1068081" lon="12.5031136"><ele>214.2</ele><time>2026-04-07T17:26:57.872Z</time></trkpt><trkpt lat="43.1068728" lon="12.5031336"><ele>214.39999999999998</ele><time>2026-04-07T17:27:14.87Z</time></trkpt><trkpt lat="43.1069582" lon="12.5031683"><ele>214.6</ele><time>2026-04-07T17:27:16.871Z</time></trkpt><trkpt lat="43.107059" lon="12.5032184"><ele>214.8</ele><time>2026-04-07T17:27:18.871Z</time></trkpt><trkpt lat="43.1071555" lon="12.5032702"><ele>215.0</ele><time>2026-04-07T17:27:20.87Z</time></trkpt><trkpt lat="43.1072412" lon="12.5033165"><ele>215.0</ele><time>2026-04-07T17:27:22.872Z</time></trkpt><trkpt lat="43.1073419" lon="12.5033717"><ele>215.0</ele><time>2026-04-07T17:27:24.87Z</time></trkpt><trkpt lat="43.1074377" lon="12.5034253"><ele>215.0</ele><time>2026-04-07T17:27:26.872Z</time></trkpt><trkpt lat="43.1075357" lon="12.5034582"><ele>215.0</ele><time>2026-04-07T17:27:28.87Z</time></trkpt><trkpt lat="43.1076347" lon="12.5035069"><ele>215.0</ele><time>2026-04-07T17:27:30.871Z</time></trkpt><trkpt lat="43.1077342" lon="12.5035534"><ele>215.2</ele><time>2026-04-07T17:27:32.87Z</time></trkpt><trkpt lat="43.1078273" lon="12.5035967"><ele>215.4</ele><time>2026-04-07T17:27:34.872Z</time></trkpt><trkpt lat="43.1079244" lon="12.5036499"><ele>215.60000000000002</ele><time>2026-04-07T17:27:36.871Z</time></trkpt><trkpt lat="43.1080262" lon="12.5037046"><ele>215.8</ele><time>2026-04-07T17:27:38.871Z</time></trkpt><trkpt lat="43.1081295" lon="12.5037504"><ele>216.0</ele><time>2026-04-07T17:27:40.871Z</time></trkpt><trkpt lat="43.1082387" lon="12.5037843"><ele>215.60000000000002</ele><time>2026-04-07T17:27:42.871Z</time></trkpt><trkpt lat="43.1083415" lon="12.5038246"><ele>215.20000000000002</ele><time>2026-04-07T17:27:44.872Z</time></trkpt><trkpt lat="43.1084451" lon="12.5038732"><ele>214.79999999999998</ele><time>2026-04-07T17:27:46.872Z</time></trkpt><trkpt lat="43.108556" lon="12.5039123"><ele>214.39999999999998</ele><time>2026-04-07T17:27:48.87Z</time></trkpt><trkpt lat="43.1086583" lon="12.5039524"><ele>214.0</ele><time>2026-04-07T17:27:50.871Z</time></trkpt><trkpt lat="43.1087635" lon="12.5039927"><ele>214.0</ele><time>2026-04-07T17:27:52.872Z</time></trkpt><trkpt lat="43.1088702" lon="12.5040344"><ele>213.99999999999997</ele><time>2026-04-07T17:27:54.872Z</time></trkpt><trkpt lat="43.1089815" lon="12.5040751"><ele>213.99999999999997</ele><time>2026-04-07T17:27:56.871Z</time></trkpt><trkpt lat="43.1090982" lon="12.5041173"><ele>214.0</ele><time>2026-04-07T17:27:58.871Z</time></trkpt><trkpt lat="43.1091613" lon="12.5041367"><ele>214.0</ele><time>2026-04-07T17:27:59.871Z</time></trkpt><trkpt lat="43.1092808" lon="12.5041754"><ele>214.0</ele><time>2026-04-07T17:28:01.872Z</time></trkpt><trkpt lat="43.1093422" lon="12.5042008"><ele>213.99999999999997</ele><time>2026-04-07T17:28:02.87Z</time></trkpt><trkpt lat="43.1094036" lon="12.5042258"><ele>213.99999999999997</ele><time>2026-04-07T17:28:03.87Z</time></trkpt><trkpt lat="43.109524" lon="12.5042649"><ele>214.0</ele><time>2026-04-07T17:28:05.87Z</time></trkpt><trkpt lat="43.109645" lon="12.5043022"><ele>214.0</ele><time>2026-04-07T17:28:07.871Z</time></trkpt><trkpt lat="43.1097666" lon="12.5043393"><ele>214.0</ele><time>2026-04-07T17:28:09.87Z</time></trkpt><trkpt lat="43.1098288" lon="12.504357"><ele>213.99999999999997</ele><time>2026-04-07T17:28:10.872Z</time></trkpt><trkpt lat="43.1099478" lon="12.5043829"><ele>213.99999999999997</ele><time>2026-04-07T17:28:12.871Z</time></trkpt><trkpt lat="43.1100668" lon="12.5044172"><ele>214.0</ele><time>2026-04-07T17:28:14.871Z</time></trkpt><trkpt lat="43.1101858" lon="12.5044594"><ele>214.0</ele><time>2026-04-07T17:28:16.871Z</time></trkpt><trkpt lat="43.1103073" lon="12.504508"><ele>213.83333333333331</ele><time>2026-04-07T17:28:18.871Z</time></trkpt><trkpt lat="43.1104258" lon="12.5045685"><ele>213.66666666666666</ele><time>2026-04-07T17:28:20.87Z</time></trkpt><trkpt lat="43.1104792" lon="12.5046166"><ele>213.5</ele><time>2026-04-07T17:28:21.871Z</time></trkpt><trkpt lat="43.1105292" lon="12.5046723"><ele>213.33333333333331</ele><time>2026-04-07T17:28:22.871Z</time></trkpt><trkpt lat="43.1105798" lon="12.5047284"><ele>213.16666666666666</ele><time>2026-04-07T17:28:23.871Z</time></trkpt><trkpt lat="43.1106303" lon="12.5047855"><ele>213.0</ele><time>2026-04-07T17:28:24.871Z</time></trkpt><trkpt lat="43.1107254" lon="12.5048919"><ele>213.5</ele><time>2026-04-07T17:28:26.871Z</time></trkpt><trkpt lat="43.1108262" lon="12.5049964"><ele>214.0</ele><time>2026-04-07T17:28:28.871Z</time></trkpt><trkpt lat="43.110881" lon="12.5050426"><ele>214.5</ele><time>2026-04-07T17:28:29.87Z</time></trkpt><trkpt lat="43.110937" lon="12.5050853"><ele>215.0</ele><time>2026-04-07T17:28:30.871Z</time></trkpt><trkpt lat="43.1110488" lon="12.5051644"><ele>215.5</ele><time>2026-04-07T17:28:32.871Z</time></trkpt><trkpt lat="43.1111063" lon="12.505208"><ele>216.0</ele><time>2026-04-07T17:28:33.87Z</time></trkpt><trkpt lat="43.1111594" lon="12.5052545"><ele>216.0</ele><time>2026-04-07T17:28:34.87Z</time></trkpt><trkpt lat="43.1112128" lon="12.5053056"><ele>216.0</ele><time>2026-04-07T17:28:35.871Z</time></trkpt><trkpt lat="43.111262" lon="12.5053645"><ele>216.0</ele><time>2026-04-07T17:28:36.87Z</time></trkpt><trkpt lat="43.1113092" lon="12.5054226"><ele>216.0</ele><time>2026-04-07T17:28:37.871Z</time></trkpt><trkpt lat="43.1113588" lon="12.505485"><ele>216.0</ele><time>2026-04-07T17:28:38.87Z</time></trkpt><trkpt lat="43.1114543" lon="12.5056037"><ele>216.0</ele><time>2026-04-07T17:28:40.872Z</time></trkpt><trkpt lat="43.1115016" lon="12.5056617"><ele>216.0</ele><time>2026-04-07T17:28:41.871Z</time></trkpt><trkpt lat="43.11159" lon="12.505777"><ele>216.00000000000003</ele><time>2026-04-07T17:28:43.871Z</time></trkpt><trkpt lat="43.1116397" lon="12.505831"><ele>216.00000000000003</ele><time>2026-04-07T17:28:44.871Z</time></trkpt><trkpt lat="43.1117363" lon="12.5059362"><ele>216.0</ele><time>2026-04-07T17:28:46.87Z</time></trkpt><trkpt lat="43.1118263" lon="12.5060386"><ele>216.0</ele><time>2026-04-07T17:28:48.871Z</time></trkpt><trkpt lat="43.1119177" lon="12.5061414"><ele>216.0</ele><time>2026-04-07T17:28:50.871Z</time></trkpt><trkpt lat="43.1120012" lon="12.5062366"><ele>216.0</ele><time>2026-04-07T17:28:52.871Z</time></trkpt><trkpt lat="43.1120953" lon="12.506344"><ele>216.0</ele><time>2026-04-07T17:28:54.87Z</time></trkpt><trkpt lat="43.1121949" lon="12.5064457"><ele>216.0</ele><time>2026-04-07T17:28:56.871Z</time></trkpt><trkpt lat="43.1122968" lon="12.5065421"><ele>215.5</ele><time>2026-04-07T17:28:58.872Z</time></trkpt><trkpt lat="43.1123941" lon="12.5066317"><ele>215.0</ele><time>2026-04-07T17:29:00.871Z</time></trkpt><trkpt lat="43.112494" lon="12.5067107"><ele>214.5</ele><time>2026-04-07T17:29:02.872Z</time></trkpt><trkpt lat="43.1125877" lon="12.506797"><ele>214.0</ele><time>2026-04-07T17:29:04.871Z</time></trkpt><trkpt lat="43.1126822" lon="12.5068879"><ele>214.0</ele><time>2026-04-07T17:29:06.871Z</time></trkpt><trkpt lat="43.1127767" lon="12.5069744"><ele>214.0</ele><time>2026-04-07T17:29:08.871Z</time></trkpt><trkpt lat="43.1128801" lon="12.5070498"><ele>214.0</ele><time>2026-04-07T17:29:10.87Z</time></trkpt><trkpt lat="43.1129794" lon="12.5071266"><ele>214.0</ele><time>2026-04-07T17:29:12.871Z</time></trkpt><trkpt lat="43.1130767" lon="12.5072007"><ele>214.0</ele><time>2026-04-07T17:29:14.871Z</time></trkpt><trkpt lat="43.1131776" lon="12.507279"><ele>214.0</ele><time>2026-04-07T17:29:16.87Z</time></trkpt><trkpt lat="43.113279" lon="12.5073576"><ele>214.0</ele><time>2026-04-07T17:29:18.871Z</time></trkpt><trkpt lat="43.1133777" lon="12.5074311"><ele>214.0</ele><time>2026-04-07T17:29:20.872Z</time></trkpt><trkpt lat="43.1134752" lon="12.507508"><ele>214.5</ele><time>2026-04-07T17:29:22.871Z</time></trkpt><trkpt lat="43.1135789" lon="12.5075862"><ele>215.0</ele><time>2026-04-07T17:29:24.871Z</time></trkpt><trkpt lat="43.1136809" lon="12.5076633"><ele>215.5</ele><time>2026-04-07T17:29:26.872Z</time></trkpt><trkpt lat="43.1137777" lon="12.5077487"><ele>216.0</ele><time>2026-04-07T17:29:28.872Z</time></trkpt><trkpt lat="43.1138665" lon="12.5078232"><ele>216.0</ele><time>2026-04-07T17:29:30.87Z</time></trkpt><trkpt lat="43.1139545" lon="12.5078974"><ele>216.00000000000003</ele><time>2026-04-07T17:29:32.871Z</time></trkpt><trkpt lat="43.1140517" lon="12.5079752"><ele>216.00000000000003</ele><time>2026-04-07T17:29:34.871Z</time></trkpt><trkpt lat="43.1141471" lon="12.5080622"><ele>216.0</ele><time>2026-04-07T17:29:36.872Z</time></trkpt><trkpt lat="43.1142368" lon="12.5081532"><ele>216.0</ele><time>2026-04-07T17:29:38.871Z</time></trkpt><trkpt lat="43.1143364" lon="12.5082404"><ele>216.4</ele><time>2026-04-07T17:29:40.871Z</time></trkpt><trkpt lat="43.1144291" lon="12.5083264"><ele>216.8</ele><time>2026-04-07T17:29:42.87Z</time></trkpt><trkpt lat="43.114481" lon="12.5083755"><ele>217.20000000000002</ele><time>2026-04-07T17:29:43.871Z</time></trkpt><trkpt lat="43.1145679" lon="12.5084726"><ele>217.60000000000002</ele><time>2026-04-07T17:29:45.871Z</time></trkpt><trkpt lat="43.1146524" lon="12.5085642"><ele>218.0</ele><time>2026-04-07T17:29:47.872Z</time></trkpt><trkpt lat="43.114744" lon="12.5086595"><ele>218.0</ele><time>2026-04-07T17:29:49.872Z</time></trkpt><trkpt lat="43.1148277" lon="12.5087596"><ele>218.0</ele><time>2026-04-07T17:29:51.871Z</time></trkpt><trkpt lat="43.1149124" lon="12.5088599"><ele>218.0</ele><time>2026-04-07T17:29:53.872Z</time></trkpt><trkpt lat="43.1149997" lon="12.5089673"><ele>218.0</ele><time>2026-04-07T17:29:55.871Z</time></trkpt><trkpt lat="43.1150854" lon="12.5090741"><ele>218.0</ele><time>2026-04-07T17:29:57.871Z</time></trkpt><trkpt lat="43.1151468" lon="12.5091853"><ele>218.0</ele><time>2026-04-07T17:29:59.871Z</time></trkpt><trkpt lat="43.1151832" lon="12.5093079"><ele>218.0</ele><time>2026-04-07T17:30:01.872Z</time></trkpt><trkpt lat="43.1151671" lon="12.5094526"><ele>218.0</ele><time>2026-04-07T17:30:03.871Z</time></trkpt><trkpt lat="43.1151122" lon="12.5095827"><ele>218.0</ele><time>2026-04-07T17:30:05.871Z</time></trkpt><trkpt lat="43.1150583" lon="12.5097146"><ele>217.66666666666669</ele><time>2026-04-07T17:30:07.872Z</time></trkpt><trkpt lat="43.115006" lon="12.5098715"><ele>217.33333333333334</ele><time>2026-04-07T17:30:09.871Z</time></trkpt><trkpt lat="43.1149729" lon="12.5099508"><ele>217.0</ele><time>2026-04-07T17:30:10.872Z</time></trkpt><trkpt lat="43.1149437" lon="12.5100288"><ele>216.66666666666669</ele><time>2026-04-07T17:30:11.872Z</time></trkpt><trkpt lat="43.1149128" lon="12.5101061"><ele>216.33333333333334</ele><time>2026-04-07T17:30:12.871Z</time></trkpt><trkpt lat="43.1148558" lon="12.510245"><ele>216.0</ele><time>2026-04-07T17:30:14.872Z</time></trkpt><trkpt lat="43.1148044" lon="12.5103799"><ele>215.20000000000002</ele><time>2026-04-07T17:30:16.871Z</time></trkpt><trkpt lat="43.1147589" lon="12.5105225"><ele>214.40000000000003</ele><time>2026-04-07T17:30:18.871Z</time></trkpt><trkpt lat="43.1147105" lon="12.5106753"><ele>213.6</ele><time>2026-04-07T17:30:20.872Z</time></trkpt><trkpt lat="43.1146872" lon="12.5107558"><ele>212.8</ele><time>2026-04-07T17:30:21.871Z</time></trkpt><trkpt lat="43.1146374" lon="12.5109126"><ele>212.0</ele><time>2026-04-07T17:30:23.871Z</time></trkpt><trkpt lat="43.114611" lon="12.5109913"><ele>212.0</ele><time>2026-04-07T17:30:24.871Z</time></trkpt><trkpt lat="43.1145647" lon="12.5111489"><ele>212.0</ele><time>2026-04-07T17:30:26.871Z</time></trkpt><trkpt lat="43.1145247" lon="12.5113098"><ele>212.0</ele><time>2026-04-07T17:30:28.871Z</time></trkpt><trkpt lat="43.1144841" lon="12.5114739"><ele>212.0</ele><time>2026-04-07T17:30:30.87Z</time></trkpt><trkpt lat="43.1144626" lon="12.5115551"><ele>212.0</ele><time>2026-04-07T17:30:31.871Z</time></trkpt><trkpt lat="43.1144266" lon="12.5117203"><ele>212.39999999999998</ele><time>2026-04-07T17:30:33.871Z</time></trkpt><trkpt lat="43.1143942" lon="12.5118872"><ele>212.79999999999998</ele><time>2026-04-07T17:30:35.871Z</time></trkpt><trkpt lat="43.1143646" lon="12.51205"><ele>213.2</ele><time>2026-04-07T17:30:37.87Z</time></trkpt><trkpt lat="43.1143335" lon="12.5122111"><ele>213.6</ele><time>2026-04-07T17:30:39.871Z</time></trkpt><trkpt lat="43.1143154" lon="12.5122947"><ele>214.0</ele><time>2026-04-07T17:30:40.87Z</time></trkpt><trkpt lat="43.1142801" lon="12.5124587"><ele>214.39999999999998</ele><time>2026-04-07T17:30:42.872Z</time></trkpt><trkpt lat="43.1142501" lon="12.5126232"><ele>214.79999999999998</ele><time>2026-04-07T17:30:44.872Z</time></trkpt><trkpt lat="43.1142209" lon="12.5127883"><ele>215.20000000000002</ele><time>2026-04-07T17:30:46.87Z</time></trkpt><trkpt lat="43.1142017" lon="12.5128707"><ele>215.60000000000002</ele><time>2026-04-07T17:30:47.871Z</time></trkpt><trkpt lat="43.1141686" lon="12.5130373"><ele>216.0</ele><time>2026-04-07T17:30:49.87Z</time></trkpt><trkpt lat="43.1141522" lon="12.5131229"><ele>216.25</ele><time>2026-04-07T17:30:50.871Z</time></trkpt><trkpt lat="43.114132" lon="12.5132906"><ele>216.5</ele><time>2026-04-07T17:30:52.872Z</time></trkpt><trkpt lat="43.1141137" lon="12.5134547"><ele>216.75</ele><time>2026-04-07T17:30:54.871Z</time></trkpt><trkpt lat="43.1140885" lon="12.5136163"><ele>217.0</ele><time>2026-04-07T17:30:56.872Z</time></trkpt><trkpt lat="43.1140613" lon="12.5137754"><ele>216.25</ele><time>2026-04-07T17:30:58.872Z</time></trkpt><trkpt lat="43.1140279" lon="12.5139325"><ele>215.5</ele><time>2026-04-07T17:31:00.87Z</time></trkpt><trkpt lat="43.1139945" lon="12.5140921"><ele>214.75</ele><time>2026-04-07T17:31:02.872Z</time></trkpt><trkpt lat="43.1139599" lon="12.5142484"><ele>214.0</ele><time>2026-04-07T17:31:04.87Z</time></trkpt><trkpt lat="43.1139236" lon="12.5144051"><ele>214.0</ele><time>2026-04-07T17:31:06.872Z</time></trkpt><trkpt lat="43.1138875" lon="12.5145654"><ele>214.0</ele><time>2026-04-07T17:31:08.871Z</time></trkpt><trkpt lat="43.1138456" lon="12.5147251"><ele>214.0</ele><time>2026-04-07T17:31:10.871Z</time></trkpt><trkpt lat="43.1137965" lon="12.5148776"><ele>214.0</ele><time>2026-04-07T17:31:12.871Z</time></trkpt><trkpt lat="43.1137425" lon="12.5150303"><ele>214.0</ele><time>2026-04-07T17:31:14.872Z</time></trkpt><trkpt lat="43.1136896" lon="12.5151816"><ele>214.0</ele><time>2026-04-07T17:31:16.87Z</time></trkpt><trkpt lat="43.1136277" lon="12.5153245"><ele>214.0</ele><time>2026-04-07T17:31:18.871Z</time></trkpt><trkpt lat="43.1135692" lon="12.5154687"><ele>214.0</ele><time>2026-04-07T17:31:20.872Z</time></trkpt><trkpt lat="43.1135092" lon="12.5156117"><ele>213.75</ele><time>2026-04-07T17:31:22.871Z</time></trkpt><trkpt lat="43.1134484" lon="12.5157558"><ele>213.5</ele><time>2026-04-07T17:31:24.871Z</time></trkpt><trkpt lat="43.1133922" lon="12.5159064"><ele>213.25</ele><time>2026-04-07T17:31:26.87Z</time></trkpt><trkpt lat="43.1133527" lon="12.5160578"><ele>213.0</ele><time>2026-04-07T17:31:28.872Z</time></trkpt><trkpt lat="43.1133286" lon="12.5162035"><ele>213.0</ele><time>2026-04-07T17:31:30.871Z</time></trkpt><trkpt lat="43.1133126" lon="12.516327"><ele>213.0</ele><time>2026-04-07T17:31:32.87Z</time></trkpt><trkpt lat="43.1133034" lon="12.516454"><ele>213.0</ele><time>2026-04-07T17:31:34.87Z</time></trkpt><trkpt lat="43.1132935" lon="12.5165868"><ele>213.0</ele><time>2026-04-07T17:31:36.871Z</time></trkpt><trkpt lat="43.1132761" lon="12.5167284"><ele>213.0</ele><time>2026-04-07T17:31:38.871Z</time></trkpt><trkpt lat="43.1132583" lon="12.5168822"><ele>213.0</ele><time>2026-04-07T17:31:40.871Z</time></trkpt><trkpt lat="43.1132419" lon="12.5170448"><ele>213.0</ele><time>2026-04-07T17:31:42.872Z</time></trkpt><trkpt lat="43.1132201" lon="12.5172117"><ele>213.0</ele><time>2026-04-07T17:31:44.871Z</time></trkpt><trkpt lat="43.1132016" lon="12.5173738"><ele>213.0</ele><time>2026-04-07T17:31:46.87Z</time></trkpt><trkpt lat="43.1131884" lon="12.5174582"><ele>213.0</ele><time>2026-04-07T17:31:47.871Z</time></trkpt><trkpt lat="43.1131645" lon="12.5176227"><ele>213.0</ele><time>2026-04-07T17:31:49.871Z</time></trkpt><trkpt lat="43.113152" lon="12.5177081"><ele>213.0</ele><time>2026-04-07T17:31:50.871Z</time></trkpt><trkpt lat="43.1131358" lon="12.5178742"><ele>213.0</ele><time>2026-04-07T17:31:52.871Z</time></trkpt><trkpt lat="43.1131236" lon="12.5180439"><ele>213.0</ele><time>2026-04-07T17:31:54.872Z</time></trkpt><trkpt lat="43.1131292" lon="12.5182094"><ele>213.0</ele><time>2026-04-07T17:31:56.871Z</time></trkpt><trkpt lat="43.1131508" lon="12.5183746"><ele>212.8</ele><time>2026-04-07T17:31:58.872Z</time></trkpt><trkpt lat="43.113156" lon="12.5184606"><ele>212.60000000000002</ele><time>2026-04-07T17:31:59.872Z</time></trkpt><trkpt lat="43.1131428" lon="12.5186281"><ele>212.39999999999998</ele><time>2026-04-07T17:32:01.872Z</time></trkpt><trkpt lat="43.1131282" lon="12.5187958"><ele>212.2</ele><time>2026-04-07T17:32:03.871Z</time></trkpt><trkpt lat="43.1131057" lon="12.5189628"><ele>212.0</ele><time>2026-04-07T17:32:05.87Z</time></trkpt><trkpt lat="43.1130869" lon="12.5191302"><ele>211.75</ele><time>2026-04-07T17:32:07.871Z</time></trkpt><trkpt lat="43.1130694" lon="12.5192954"><ele>211.5</ele><time>2026-04-07T17:32:09.871Z</time></trkpt><trkpt lat="43.1130516" lon="12.5194586"><ele>211.25</ele><time>2026-04-07T17:32:11.87Z</time></trkpt><trkpt lat="43.1130347" lon="12.5196204"><ele>211.0</ele><time>2026-04-07T17:32:13.872Z</time></trkpt><trkpt lat="43.1130051" lon="12.5197798"><ele>211.20000000000002</ele><time>2026-04-07T17:32:15.87Z</time></trkpt><trkpt lat="43.1129847" lon="12.519943"><ele>211.4</ele><time>2026-04-07T17:32:17.872Z</time></trkpt><trkpt lat="43.1129742" lon="12.5200291"><ele>211.6</ele><time>2026-04-07T17:32:18.871Z</time></trkpt><trkpt lat="43.1129652" lon="12.5201166"><ele>211.8</ele><time>2026-04-07T17:32:19.871Z</time></trkpt><trkpt lat="43.1129469" lon="12.5202828"><ele>212.0</ele><time>2026-04-07T17:32:21.871Z</time></trkpt><trkpt lat="43.1129207" lon="12.5204476"><ele>212.0</ele><time>2026-04-07T17:32:23.871Z</time></trkpt><trkpt lat="43.1128896" lon="12.5205995"><ele>212.0</ele><time>2026-04-07T17:32:25.872Z</time></trkpt><trkpt lat="43.1128624" lon="12.5207527"><ele>212.0</ele><time>2026-04-07T17:32:27.87Z</time></trkpt><trkpt lat="43.1128288" lon="12.5209133"><ele>212.0</ele><time>2026-04-07T17:32:29.87Z</time></trkpt><trkpt lat="43.1127927" lon="12.5210717"><ele>212.0</ele><time>2026-04-07T17:32:31.871Z</time></trkpt><trkpt lat="43.1127609" lon="12.5212297"><ele>212.0</ele><time>2026-04-07T17:32:33.872Z</time></trkpt><trkpt lat="43.1127381" lon="12.5213878"><ele>212.0</ele><time>2026-04-07T17:32:35.871Z</time></trkpt><trkpt lat="43.1126858" lon="12.5214945"><ele>212.0</ele><time>2026-04-07T17:32:37.871Z</time></trkpt><trkpt lat="43.1125918" lon="12.5215032"><ele>212.0</ele><time>2026-04-07T17:32:39.871Z</time></trkpt><trkpt lat="43.1124858" lon="12.521471"><ele>212.0</ele><time>2026-04-07T17:32:41.872Z</time></trkpt><trkpt lat="43.1123727" lon="12.5214254"><ele>212.0</ele><time>2026-04-07T17:32:43.871Z</time></trkpt><trkpt lat="43.1122643" lon="12.5213741"><ele>212.0</ele><time>2026-04-07T17:32:45.87Z</time></trkpt><trkpt lat="43.1121567" lon="12.521323"><ele>212.0</ele><time>2026-04-07T17:32:47.871Z</time></trkpt><trkpt lat="43.1120496" lon="12.5212752"><ele>212.0</ele><time>2026-04-07T17:32:49.871Z</time></trkpt><trkpt lat="43.1119496" lon="12.521232"><ele>212.0</ele><time>2026-04-07T17:32:51.872Z</time></trkpt><trkpt lat="43.1118602" lon="12.5211966"><ele>212.0</ele><time>2026-04-07T17:32:53.872Z</time></trkpt><trkpt lat="43.111777" lon="12.5211585"><ele>212.0</ele><time>2026-04-07T17:32:55.87Z</time></trkpt><trkpt lat="43.1116933" lon="12.5211141"><ele>212.0</ele><time>2026-04-07T17:32:57.871Z</time></trkpt><trkpt lat="43.1115952" lon="12.5210511"><ele>211.75</ele><time>2026-04-07T17:32:59.871Z</time></trkpt><trkpt lat="43.1114881" lon="12.5209886"><ele>211.5</ele><time>2026-04-07T17:33:01.871Z</time></trkpt><trkpt lat="43.1113809" lon="12.5209333"><ele>211.25</ele><time>2026-04-07T17:33:03.871Z</time></trkpt><trkpt lat="43.1112705" lon="12.5208822"><ele>211.0</ele><time>2026-04-07T17:33:05.871Z</time></trkpt><trkpt lat="43.1111633" lon="12.520832"><ele>211.0</ele><time>2026-04-07T17:33:07.871Z</time></trkpt><trkpt lat="43.1110546" lon="12.5207783"><ele>211.0</ele><time>2026-04-07T17:33:09.871Z</time></trkpt><trkpt lat="43.1109505" lon="12.5207185"><ele>211.0</ele><time>2026-04-07T17:33:11.872Z</time></trkpt><trkpt lat="43.1108419" lon="12.5206676"><ele>211.0</ele><time>2026-04-07T17:33:13.871Z</time></trkpt><trkpt lat="43.1107318" lon="12.5206159"><ele>211.25</ele><time>2026-04-07T17:33:15.872Z</time></trkpt><trkpt lat="43.1106249" lon="12.5205627"><ele>211.5</ele><time>2026-04-07T17:33:17.87Z</time></trkpt><trkpt lat="43.1105135" lon="12.5205136"><ele>211.75</ele><time>2026-04-07T17:33:19.871Z</time></trkpt><trkpt lat="43.1104033" lon="12.5204518"><ele>212.0</ele><time>2026-04-07T17:33:21.871Z</time></trkpt><trkpt lat="43.1102958" lon="12.5203832"><ele>212.25</ele><time>2026-04-07T17:33:23.872Z</time></trkpt><trkpt lat="43.1101899" lon="12.5203243"><ele>212.5</ele><time>2026-04-07T17:33:25.87Z</time></trkpt><trkpt lat="43.1100827" lon="12.5202626"><ele>212.75</ele><time>2026-04-07T17:33:27.871Z</time></trkpt><trkpt lat="43.1099735" lon="12.5201953"><ele>213.0</ele><time>2026-04-07T17:33:29.871Z</time></trkpt><trkpt lat="43.109864" lon="12.5201307"><ele>212.25</ele><time>2026-04-07T17:33:31.87Z</time></trkpt><trkpt lat="43.1097482" lon="12.5200744"><ele>211.5</ele><time>2026-04-07T17:33:33.872Z</time></trkpt><trkpt lat="43.1096397" lon="12.520019"><ele>210.75</ele><time>2026-04-07T17:33:35.871Z</time></trkpt><trkpt lat="43.109531" lon="12.5199681"><ele>210.0</ele><time>2026-04-07T17:33:37.872Z</time></trkpt><trkpt lat="43.1094246" lon="12.5199171"><ele>210.0</ele><time>2026-04-07T17:33:39.871Z</time></trkpt><trkpt lat="43.1093155" lon="12.5198581"><ele>210.0</ele><time>2026-04-07T17:33:41.871Z</time></trkpt><trkpt lat="43.1092097" lon="12.5197924"><ele>210.0</ele><time>2026-04-07T17:33:43.872Z</time></trkpt><trkpt lat="43.1091044" lon="12.5197206"><ele>210.0</ele><time>2026-04-07T17:33:45.87Z</time></trkpt><trkpt lat="43.1090046" lon="12.5196471"><ele>210.2</ele><time>2026-04-07T17:33:47.872Z</time></trkpt><trkpt lat="43.1089093" lon="12.5195672"><ele>210.4</ele><time>2026-04-07T17:33:49.87Z</time></trkpt><trkpt lat="43.108811" lon="12.5195038"><ele>210.60000000000002</ele><time>2026-04-07T17:33:51.871Z</time></trkpt><trkpt lat="43.1087253" lon="12.5195633"><ele>210.8</ele><time>2026-04-07T17:33:53.871Z</time></trkpt><trkpt lat="43.1086915" lon="12.5196875"><ele>211.0</ele><time>2026-04-07T17:33:55.871Z</time></trkpt><trkpt lat="43.1086597" lon="12.5198262"><ele>211.0</ele><time>2026-04-07T17:33:57.871Z</time></trkpt><trkpt lat="43.1086253" lon="12.51996"><ele>211.0</ele><time>2026-04-07T17:33:59.872Z</time></trkpt><trkpt lat="43.1085423" lon="12.5200413"><ele>211.0</ele><time>2026-04-07T17:34:01.87Z</time></trkpt><trkpt lat="43.1084464" lon="12.5200079"><ele>211.0</ele><time>2026-04-07T17:34:03.87Z</time></trkpt><trkpt lat="43.1083439" lon="12.5199676"><ele>211.0</ele><time>2026-04-07T17:34:05.871Z</time></trkpt><trkpt lat="43.1082407" lon="12.5199257"><ele>211.75</ele><time>2026-04-07T17:34:07.872Z</time></trkpt><trkpt lat="43.1081337" lon="12.5198803"><ele>212.5</ele><time>2026-04-07T17:34:09.871Z</time></trkpt><trkpt lat="43.1080222" lon="12.5198467"><ele>213.25</ele><time>2026-04-07T17:34:11.872Z</time></trkpt><trkpt lat="43.1079121" lon="12.519812"><ele>214.0</ele><time>2026-04-07T17:34:13.871Z</time></trkpt><trkpt lat="43.1078062" lon="12.5197669"><ele>214.0</ele><time>2026-04-07T17:34:15.871Z</time></trkpt><trkpt lat="43.1076983" lon="12.5197382"><ele>214.0</ele><time>2026-04-07T17:34:17.871Z</time></trkpt><trkpt lat="43.1075861" lon="12.5197005"><ele>214.0</ele><time>2026-04-07T17:34:19.87Z</time></trkpt><trkpt lat="43.1074744" lon="12.5196557"><ele>214.0</ele><time>2026-04-07T17:34:21.87Z</time></trkpt><trkpt lat="43.1073596" lon="12.5196097"><ele>213.5</ele><time>2026-04-07T17:34:23.872Z</time></trkpt><trkpt lat="43.1072449" lon="12.5195752"><ele>213.0</ele><time>2026-04-07T17:34:25.871Z</time></trkpt><trkpt lat="43.1071315" lon="12.5195321"><ele>212.5</ele><time>2026-04-07T17:34:27.87Z</time></trkpt><trkpt lat="43.1070224" lon="12.5194953"><ele>212.0</ele><time>2026-04-07T17:34:29.871Z</time></trkpt><trkpt lat="43.1069054" lon="12.5194657"><ele>211.8</ele><time>2026-04-07T17:34:31.87Z</time></trkpt><trkpt lat="43.1067909" lon="12.5194314"><ele>211.6</ele><time>2026-04-07T17:34:33.871Z</time></trkpt><trkpt lat="43.1066787" lon="12.5193891"><ele>211.4</ele><time>2026-04-07T17:34:35.872Z</time></trkpt><trkpt lat="43.1066168" lon="12.5193713"><ele>211.20000000000002</ele><time>2026-04-07T17:34:36.871Z</time></trkpt><trkpt lat="43.106496" lon="12.5193304"><ele>211.0</ele><time>2026-04-07T17:34:38.872Z</time></trkpt><trkpt lat="43.1063789" lon="12.5192915"><ele>210.60000000000002</ele><time>2026-04-07T17:34:40.871Z</time></trkpt><trkpt lat="43.1062597" lon="12.5192532"><ele>210.2</ele><time>2026-04-07T17:34:42.871Z</time></trkpt><trkpt lat="43.1061975" lon="12.5192345"><ele>209.8</ele><time>2026-04-07T17:34:43.871Z</time></trkpt><trkpt lat="43.1060798" lon="12.5191922"><ele>209.39999999999998</ele><time>2026-04-07T17:34:45.872Z</time></trkpt><trkpt lat="43.1060189" lon="12.5191685"><ele>209.0</ele><time>2026-04-07T17:34:46.87Z</time></trkpt><trkpt lat="43.1059014" lon="12.519124"><ele>209.0</ele><time>2026-04-07T17:34:48.871Z</time></trkpt><trkpt lat="43.1057882" lon="12.5190711"><ele>209.0</ele><time>2026-04-07T17:34:50.872Z</time></trkpt><trkpt lat="43.1056757" lon="12.5190351"><ele>209.0</ele><time>2026-04-07T17:34:52.87Z</time></trkpt><trkpt lat="43.1055604" lon="12.5189892"><ele>209.0</ele><time>2026-04-07T17:34:54.872Z</time></trkpt><trkpt lat="43.1054409" lon="12.5189533"><ele>209.0</ele><time>2026-04-07T17:34:56.87Z</time></trkpt><trkpt lat="43.1053244" lon="12.5189152"><ele>209.0</ele><time>2026-04-07T17:34:58.871Z</time></trkpt><trkpt lat="43.1052068" lon="12.5188772"><ele>209.0</ele><time>2026-04-07T17:35:00.872Z</time></trkpt><trkpt lat="43.105089" lon="12.518834"><ele>209.0</ele><time>2026-04-07T17:35:02.871Z</time></trkpt><trkpt lat="43.1049714" lon="12.5187988"><ele>208.75</ele><time>2026-04-07T17:35:04.87Z</time></trkpt><trkpt lat="43.1048597" lon="12.5187703"><ele>208.5</ele><time>2026-04-07T17:35:06.872Z</time></trkpt><trkpt lat="43.1047473" lon="12.5187359"><ele>208.25</ele><time>2026-04-07T17:35:08.871Z</time></trkpt><trkpt lat="43.1046394" lon="12.5186933"><ele>208.0</ele><time>2026-04-07T17:35:10.871Z</time></trkpt><trkpt lat="43.104528" lon="12.5186428"><ele>207.60000000000002</ele><time>2026-04-07T17:35:12.871Z</time></trkpt><trkpt lat="43.1044671" lon="12.51862"><ele>207.20000000000002</ele><time>2026-04-07T17:35:13.87Z</time></trkpt><trkpt lat="43.1043546" lon="12.5185703"><ele>206.8</ele><time>2026-04-07T17:35:15.872Z</time></trkpt><trkpt lat="43.1042361" lon="12.5185388"><ele>206.4</ele><time>2026-04-07T17:35:17.87Z</time></trkpt><trkpt lat="43.1041217" lon="12.5184937"><ele>206.0</ele><time>2026-04-07T17:35:19.871Z</time></trkpt><trkpt lat="43.1040067" lon="12.518463"><ele>205.75</ele><time>2026-04-07T17:35:21.872Z</time></trkpt><trkpt lat="43.1038922" lon="12.5184245"><ele>205.5</ele><time>2026-04-07T17:35:23.87Z</time></trkpt><trkpt lat="43.1037797" lon="12.5183835"><ele>205.25</ele><time>2026-04-07T17:35:25.87Z</time></trkpt><trkpt lat="43.103667" lon="12.518333"><ele>205.0</ele><time>2026-04-07T17:35:27.872Z</time></trkpt><trkpt lat="43.1035511" lon="12.5182958"><ele>205.0</ele><time>2026-04-07T17:35:29.87Z</time></trkpt><trkpt lat="43.1034336" lon="12.5182546"><ele>205.0</ele><time>2026-04-07T17:35:31.87Z</time></trkpt><trkpt lat="43.1033194" lon="12.5182177"><ele>205.0</ele><time>2026-04-07T17:35:33.871Z</time></trkpt><trkpt lat="43.1032057" lon="12.5181861"><ele>205.0</ele><time>2026-04-07T17:35:35.871Z</time></trkpt><trkpt lat="43.1030891" lon="12.5181614"><ele>205.25</ele><time>2026-04-07T17:35:37.871Z</time></trkpt><trkpt lat="43.1029755" lon="12.5181154"><ele>205.5</ele><time>2026-04-07T17:35:39.871Z</time></trkpt><trkpt lat="43.102863" lon="12.5180691"><ele>205.75</ele><time>2026-04-07T17:35:41.871Z</time></trkpt><trkpt lat="43.1027459" lon="12.5180302"><ele>206.0</ele><time>2026-04-07T17:35:43.87Z</time></trkpt><trkpt lat="43.102645" lon="12.5179864"><ele>206.0</ele><time>2026-04-07T17:35:45.871Z</time></trkpt><trkpt lat="43.1025439" lon="12.5179565"><ele>206.0</ele><time>2026-04-07T17:35:47.871Z</time></trkpt><trkpt lat="43.1024602" lon="12.517924"><ele>206.0</ele><time>2026-04-07T17:35:49.871Z</time></trkpt><trkpt lat="43.1023737" lon="12.5178802"><ele>206.0</ele><time>2026-04-07T17:35:51.872Z</time></trkpt><trkpt lat="43.1022821" lon="12.5178451"><ele>206.0</ele><time>2026-04-07T17:35:53.872Z</time></trkpt><trkpt lat="43.102204" lon="12.5178208"><ele>205.83333333333334</ele><time>2026-04-07T17:35:55.87Z</time></trkpt><trkpt lat="43.1021393" lon="12.5178055"><ele>205.66666666666669</ele><time>2026-04-07T17:35:57.872Z</time></trkpt><trkpt lat="43.102077" lon="12.5177756"><ele>205.5</ele><time>2026-04-07T17:36:17.871Z</time></trkpt><trkpt lat="43.1020127" lon="12.5177592"><ele>205.33333333333331</ele><time>2026-04-07T17:36:20.87Z</time></trkpt><trkpt lat="43.1019334" lon="12.5177184"><ele>205.16666666666666</ele><time>2026-04-07T17:36:23.872Z</time></trkpt><trkpt lat="43.1018449" lon="12.5176912"><ele>205.0</ele><time>2026-04-07T17:36:26.87Z</time></trkpt><trkpt lat="43.1017695" lon="12.5177171"><ele>204.99999999999997</ele><time>2026-04-07T17:36:29.871Z</time></trkpt><trkpt lat="43.1017468" lon="12.5178062"><ele>205.0</ele><time>2026-04-07T17:36:31.872Z</time></trkpt><trkpt lat="43.1017349" lon="12.5179313"><ele>205.0</ele><time>2026-04-07T17:36:33.871Z</time></trkpt><trkpt lat="43.1017248" lon="12.5180576"><ele>205.0</ele><time>2026-04-07T17:36:35.872Z</time></trkpt><trkpt lat="43.1017274" lon="12.5181866"><ele>204.99999999999997</ele><time>2026-04-07T17:36:37.871Z</time></trkpt><trkpt lat="43.1017306" lon="12.5183221"><ele>205.0</ele><time>2026-04-07T17:36:39.872Z</time></trkpt><trkpt lat="43.1017353" lon="12.518466"><ele>205.25</ele><time>2026-04-07T17:36:41.871Z</time></trkpt><trkpt lat="43.101752" lon="12.5186169"><ele>205.5</ele><time>2026-04-07T17:36:43.871Z</time></trkpt><trkpt lat="43.1017726" lon="12.5187782"><ele>205.75</ele><time>2026-04-07T17:36:45.872Z</time></trkpt><trkpt lat="43.1018003" lon="12.5189361"><ele>206.0</ele><time>2026-04-07T17:36:47.871Z</time></trkpt><trkpt lat="43.1018267" lon="12.5190866"><ele>206.25</ele><time>2026-04-07T17:36:49.871Z</time></trkpt><trkpt lat="43.1018597" lon="12.5192387"><ele>206.5</ele><time>2026-04-07T17:36:51.871Z</time></trkpt><trkpt lat="43.1018857" lon="12.5193979"><ele>206.75</ele><time>2026-04-07T17:36:53.87Z</time></trkpt><trkpt lat="43.1019161" lon="12.5195542"><ele>207.0</ele><time>2026-04-07T17:36:55.871Z</time></trkpt><trkpt lat="43.1019544" lon="12.5197052"><ele>207.0</ele><time>2026-04-07T17:36:57.871Z</time></trkpt><trkpt lat="43.1019907" lon="12.5198591"><ele>207.0</ele><time>2026-04-07T17:36:59.871Z</time></trkpt><trkpt lat="43.1020233" lon="12.5200114"><ele>207.0</ele><time>2026-04-07T17:37:01.871Z</time></trkpt><trkpt lat="43.1020599" lon="12.5201599"><ele>207.0</ele><time>2026-04-07T17:37:03.872Z</time></trkpt><trkpt lat="43.1020942" lon="12.5203156"><ele>207.0</ele><time>2026-04-07T17:37:05.87Z</time></trkpt><trkpt lat="43.1021256" lon="12.5204635"><ele>207.0</ele><time>2026-04-07T17:37:07.87Z</time></trkpt><trkpt lat="43.1021543" lon="12.5206093"><ele>207.0</ele><time>2026-04-07T17:37:09.871Z</time></trkpt><trkpt lat="43.1021596" lon="12.5207512"><ele>207.0</ele><time>2026-04-07T17:37:11.871Z</time></trkpt><trkpt lat="43.1020892" lon="12.5208465"><ele>207.0</ele><time>2026-04-07T17:37:13.871Z</time></trkpt><trkpt lat="43.101985" lon="12.5208435"><ele>207.0</ele><time>2026-04-07T17:37:15.872Z</time></trkpt><trkpt lat="43.101884" lon="12.5207902"><ele>207.0</ele><time>2026-04-07T17:37:17.871Z</time></trkpt><trkpt lat="43.1017811" lon="12.5207353"><ele>207.0</ele><time>2026-04-07T17:37:19.872Z</time></trkpt><trkpt lat="43.1016743" lon="12.5206736"><ele>207.0</ele><time>2026-04-07T17:37:21.871Z</time></trkpt><trkpt lat="43.1015768" lon="12.5206147"><ele>207.0</ele><time>2026-04-07T17:37:23.872Z</time></trkpt><trkpt lat="43.101469" lon="12.5205548"><ele>207.0</ele><time>2026-04-07T17:37:25.871Z</time></trkpt><trkpt lat="43.1013667" lon="12.5204967"><ele>207.0</ele><time>2026-04-07T17:37:27.872Z</time></trkpt><trkpt lat="43.1012633" lon="12.5204324"><ele>207.0</ele><time>2026-04-07T17:37:29.872Z</time></trkpt><trkpt lat="43.1011611" lon="12.5203708"><ele>207.0</ele><time>2026-04-07T17:37:31.871Z</time></trkpt><trkpt lat="43.1010578" lon="12.5203153"><ele>207.0</ele><time>2026-04-07T17:37:33.87Z</time></trkpt><trkpt lat="43.1009533" lon="12.5202626"><ele>207.2</ele><time>2026-04-07T17:37:35.87Z</time></trkpt><trkpt lat="43.1008566" lon="12.5202073"><ele>207.39999999999998</ele><time>2026-04-07T17:37:37.87Z</time></trkpt><trkpt lat="43.1007547" lon="12.5201578"><ele>207.60000000000002</ele><time>2026-04-07T17:37:39.872Z</time></trkpt><trkpt lat="43.1006511" lon="12.5201423"><ele>207.8</ele><time>2026-04-07T17:37:41.87Z</time></trkpt><trkpt lat="43.1005467" lon="12.5201658"><ele>208.0</ele><time>2026-04-07T17:37:43.87Z</time></trkpt><trkpt lat="43.1004789" lon="12.5202719"><ele>208.0</ele><time>2026-04-07T17:37:45.872Z</time></trkpt><trkpt lat="43.1004374" lon="12.5204085"><ele>208.0</ele><time>2026-04-07T17:37:47.871Z</time></trkpt><trkpt lat="43.1004257" lon="12.5205599"><ele>208.0</ele><time>2026-04-07T17:37:49.871Z</time></trkpt><trkpt lat="43.1004439" lon="12.5207062"><ele>208.0</ele><time>2026-04-07T17:37:51.872Z</time></trkpt><trkpt lat="43.1004849" lon="12.5208479"><ele>208.0</ele><time>2026-04-07T17:37:53.872Z</time></trkpt><trkpt lat="43.1005011" lon="12.5209966"><ele>208.0</ele><time>2026-04-07T17:37:55.872Z</time></trkpt><trkpt lat="43.100482" lon="12.521133"><ele>208.0</ele><time>2026-04-07T17:37:57.872Z</time></trkpt><trkpt lat="43.1004416" lon="12.521257"><ele>208.0</ele><time>2026-04-07T17:37:59.873Z</time></trkpt><trkpt lat="43.1003696" lon="12.5213583"><ele>208.0</ele><time>2026-04-07T17:38:01.873Z</time></trkpt><trkpt lat="43.1002754" lon="12.5214375"><ele>208.0</ele><time>2026-04-07T17:38:03.873Z</time></trkpt><trkpt lat="43.100196" lon="12.5215354"><ele>207.60000000000002</ele><time>2026-04-07T17:38:05.872Z</time></trkpt><trkpt lat="43.1001538" lon="12.521664"><ele>207.20000000000002</ele><time>2026-04-07T17:38:07.873Z</time></trkpt><trkpt lat="43.1001665" lon="12.5218107"><ele>206.8</ele><time>2026-04-07T17:38:09.871Z</time></trkpt><trkpt lat="43.1002298" lon="12.5219247"><ele>206.4</ele><time>2026-04-07T17:38:11.871Z</time></trkpt><trkpt lat="43.100323" lon="12.5219993"><ele>206.0</ele><time>2026-04-07T17:38:13.872Z</time></trkpt><trkpt lat="43.1004257" lon="12.5220461"><ele>206.0</ele><time>2026-04-07T17:38:15.873Z</time></trkpt><trkpt lat="43.1005254" lon="12.5221124"><ele>206.0</ele><time>2026-04-07T17:38:17.872Z</time></trkpt><trkpt lat="43.1006069" lon="12.5222211"><ele>206.0</ele><time>2026-04-07T17:38:19.872Z</time></trkpt><trkpt lat="43.1006768" lon="12.5223373"><ele>206.0</ele><time>2026-04-07T17:38:21.872Z</time></trkpt><trkpt lat="43.1007527" lon="12.5224584"><ele>205.75</ele><time>2026-04-07T17:38:23.872Z</time></trkpt><trkpt lat="43.100838" lon="12.52257"><ele>205.5</ele><time>2026-04-07T17:38:25.871Z</time></trkpt><trkpt lat="43.1009298" lon="12.5226709"><ele>205.25</ele><time>2026-04-07T17:38:27.871Z</time></trkpt><trkpt lat="43.1010286" lon="12.5227584"><ele>205.0</ele><time>2026-04-07T17:38:29.872Z</time></trkpt><trkpt lat="43.1011292" lon="12.522837"><ele>205.4</ele><time>2026-04-07T17:38:31.871Z</time></trkpt><trkpt lat="43.1012278" lon="12.5229121"><ele>205.8</ele><time>2026-04-07T17:38:33.873Z</time></trkpt><trkpt lat="43.1013253" lon="12.5229829"><ele>206.2</ele><time>2026-04-07T17:38:35.873Z</time></trkpt><trkpt lat="43.1014262" lon="12.5230538"><ele>206.6</ele><time>2026-04-07T17:38:37.871Z</time></trkpt><trkpt lat="43.1015262" lon="12.5231253"><ele>207.0</ele><time>2026-04-07T17:38:39.872Z</time></trkpt><trkpt lat="43.1016261" lon="12.5232008"><ele>207.0</ele><time>2026-04-07T17:38:41.873Z</time></trkpt><trkpt lat="43.1017283" lon="12.5232756"><ele>207.0</ele><time>2026-04-07T17:38:43.873Z</time></trkpt><trkpt lat="43.1018328" lon="12.5233478"><ele>207.0</ele><time>2026-04-07T17:38:45.871Z</time></trkpt><trkpt lat="43.1019274" lon="12.5234203"><ele>207.0</ele><time>2026-04-07T17:38:47.872Z</time></trkpt><trkpt lat="43.1020244" lon="12.5234851"><ele>207.0</ele><time>2026-04-07T17:38:49.871Z</time></trkpt><trkpt lat="43.1021268" lon="12.5235508"><ele>207.0</ele><time>2026-04-07T17:38:51.873Z</time></trkpt><trkpt lat="43.1022257" lon="12.5236169"><ele>207.0</ele><time>2026-04-07T17:38:53.872Z</time></trkpt><trkpt lat="43.102326" lon="12.5236972"><ele>207.0</ele><time>2026-04-07T17:38:55.871Z</time></trkpt><trkpt lat="43.1024203" lon="12.5237904"><ele>207.0</ele><time>2026-04-07T17:38:57.872Z</time></trkpt><trkpt lat="43.1025018" lon="12.5239052"><ele>207.8</ele><time>2026-04-07T17:38:59.871Z</time></trkpt><trkpt lat="43.1025781" lon="12.5240326"><ele>208.6</ele><time>2026-04-07T17:39:01.873Z</time></trkpt><trkpt lat="43.1026388" lon="12.5241493"><ele>209.4</ele><time>2026-04-07T17:39:03.872Z</time></trkpt><trkpt lat="43.1026831" lon="12.5242768"><ele>210.20000000000002</ele><time>2026-04-07T17:39:05.872Z</time></trkpt><trkpt lat="43.1027341" lon="12.5243999"><ele>211.0</ele><time>2026-04-07T17:39:07.872Z</time></trkpt><trkpt lat="43.1027905" lon="12.5245212"><ele>211.0</ele><time>2026-04-07T17:39:09.872Z</time></trkpt><trkpt lat="43.1028474" lon="12.5246373"><ele>211.0</ele><time>2026-04-07T17:39:11.873Z</time></trkpt><trkpt lat="43.1029118" lon="12.5247356"><ele>211.0</ele><time>2026-04-07T17:39:13.872Z</time></trkpt><trkpt lat="43.1029964" lon="12.5247318"><ele>211.0</ele><time>2026-04-07T17:39:15.873Z</time></trkpt><trkpt lat="43.1030614" lon="12.5246393"><ele>211.0</ele><time>2026-04-07T17:39:17.873Z</time></trkpt><trkpt lat="43.1031142" lon="12.5245216"><ele>211.0</ele><time>2026-04-07T17:39:19.873Z</time></trkpt><trkpt lat="43.1031661" lon="12.5244007"><ele>211.0</ele><time>2026-04-07T17:39:21.872Z</time></trkpt><trkpt lat="43.1032293" lon="12.5242902"><ele>211.0</ele><time>2026-04-07T17:39:23.873Z</time></trkpt><trkpt lat="43.1033209" lon="12.5242826"><ele>211.0</ele><time>2026-04-07T17:39:25.872Z</time></trkpt><trkpt lat="43.1034146" lon="12.5243367"><ele>211.0</ele><time>2026-04-07T17:39:27.873Z</time></trkpt><trkpt lat="43.1035063" lon="12.5243935"><ele>211.0</ele><time>2026-04-07T17:39:29.872Z</time></trkpt><trkpt lat="43.1035988" lon="12.5244565"><ele>211.0</ele><time>2026-04-07T17:39:31.872Z</time></trkpt><trkpt lat="43.1036917" lon="12.5245047"><ele>211.0</ele><time>2026-04-07T17:39:33.871Z</time></trkpt><trkpt lat="43.1037853" lon="12.5245579"><ele>211.0</ele><time>2026-04-07T17:39:35.871Z</time></trkpt><trkpt lat="43.1038746" lon="12.5246071"><ele>211.0</ele><time>2026-04-07T17:39:37.872Z</time></trkpt><trkpt lat="43.1039584" lon="12.5246523"><ele>210.99999999999997</ele><time>2026-04-07T17:39:39.872Z</time></trkpt><trkpt lat="43.1040363" lon="12.5246519"><ele>211.0</ele><time>2026-04-07T17:39:41.873Z</time></trkpt><trkpt lat="43.104106" lon="12.5245892"><ele>211.0</ele><time>2026-04-07T17:39:43.872Z</time></trkpt><trkpt lat="43.1041876" lon="12.5245447"><ele>211.0</ele><time>2026-04-07T17:39:45.872Z</time></trkpt><trkpt lat="43.1042626" lon="12.5244832"><ele>210.99999999999997</ele><time>2026-04-07T17:39:47.871Z</time></trkpt><trkpt lat="43.104327" lon="12.5243968"><ele>211.0</ele><time>2026-04-07T17:39:49.873Z</time></trkpt><trkpt lat="43.104374" lon="12.5243028"><ele>210.83333333333331</ele><time>2026-04-07T17:39:51.872Z</time></trkpt><trkpt lat="43.1044423" lon="12.5242459"><ele>210.66666666666666</ele><time>2026-04-07T17:39:53.872Z</time></trkpt><trkpt lat="43.104518" lon="12.5242677"><ele>210.5</ele><time>2026-04-07T17:39:55.873Z</time></trkpt><trkpt lat="43.1045837" lon="12.524295"><ele>210.33333333333331</ele><time>2026-04-07T17:39:57.873Z</time></trkpt><trkpt lat="43.1046557" lon="12.5243489"><ele>210.16666666666666</ele><time>2026-04-07T17:39:59.871Z</time></trkpt><trkpt lat="43.104738" lon="12.5243934"><ele>210.0</ele><time>2026-04-07T17:40:01.872Z</time></trkpt><trkpt lat="43.1048229" lon="12.5244278"><ele>210.0</ele><time>2026-04-07T17:40:03.872Z</time></trkpt><trkpt lat="43.1049032" lon="12.5244458"><ele>210.0</ele><time>2026-04-07T17:40:05.871Z</time></trkpt><trkpt lat="43.1049801" lon="12.5244484"><ele>210.0</ele><time>2026-04-07T17:40:07.871Z</time></trkpt><trkpt lat="43.1050447" lon="12.5244634"><ele>210.0</ele><time>2026-04-07T17:40:09.871Z</time></trkpt><trkpt lat="43.1051258" lon="12.5245007"><ele>210.0</ele><time>2026-04-07T17:40:12.872Z</time></trkpt><trkpt lat="43.1051978" lon="12.5244944"><ele>210.0</ele><time>2026-04-07T17:40:15.872Z</time></trkpt><trkpt lat="43.1052716" lon="12.5245369"><ele>208.0</ele><time>2026-04-07T17:40:18.872Z</time></trkpt><trkpt lat="43.1053415" lon="12.5245581"><ele>208.0</ele><time>2026-04-07T17:40:21.871Z</time></trkpt></trkseg></trk></gpx>